<?xml version="1.0" encoding="UTF-8" standalone="no" ?>
<gpx xmlns="http://www.topografix.com/GPX/1/1" xmlns:xsi="http://www.w3.org/2001/XMLSchema-instance" xsi:schemaLocation="http://www.topografix.com/GPX/1/1 http://www.topografix.com/GPX/1/1/gpx.xsd" version="1.1" creator="VisuGPX - https://www.visugpx.com">
  <metadata>
    <name>83-M-Barjols</name>
    <desc><![CDATA[83-M-Barjols : Barjols - Ponteves - sentier de découverte]]></desc>
  </metadata>
  <trk>
    <name><![CDATA[2017-02-15-M-barjols]]></name>
    <trkseg>
      <trkpt lat="43.55833" lon="6.00479">
        <ele>274.2</ele>
        <time>2017-02-15T13:17:53Z</time>
      </trkpt>
      <trkpt lat="43.55832" lon="6.0048">
        <ele>274.3</ele>
        <time>2017-02-15T13:17:54Z</time>
      </trkpt>
      <trkpt lat="43.55825" lon="6.00488">
        <ele>273.7</ele>
        <time>2017-02-15T13:19:56Z</time>
      </trkpt>
      <trkpt lat="43.55833" lon="6.00493">
        <ele>273.8</ele>
        <time>2017-02-15T13:23:18Z</time>
      </trkpt>
      <trkpt lat="43.55824" lon="6.00493">
        <ele>274.2</ele>
        <time>2017-02-15T13:23:38Z</time>
      </trkpt>
      <trkpt lat="43.55833" lon="6.00491">
        <ele>274.1</ele>
        <time>2017-02-15T13:26:49Z</time>
      </trkpt>
      <trkpt lat="43.55823" lon="6.00495">
        <ele>273.7</ele>
        <time>2017-02-15T13:27:13Z</time>
      </trkpt>
      <trkpt lat="43.55817" lon="6.00505">
        <ele>273.9</ele>
        <time>2017-02-15T13:27:22Z</time>
      </trkpt>
      <trkpt lat="43.55814" lon="6.00517">
        <ele>274.3</ele>
        <time>2017-02-15T13:27:32Z</time>
      </trkpt>
      <trkpt lat="43.55806" lon="6.00526">
        <ele>273.7</ele>
        <time>2017-02-15T13:27:42Z</time>
      </trkpt>
      <trkpt lat="43.55797" lon="6.00532">
        <ele>273.7</ele>
        <time>2017-02-15T13:27:52Z</time>
      </trkpt>
      <trkpt lat="43.55791" lon="6.00542">
        <ele>273.3</ele>
        <time>2017-02-15T13:28:02Z</time>
      </trkpt>
      <trkpt lat="43.55793" lon="6.00555">
        <ele>273.5</ele>
        <time>2017-02-15T13:28:15Z</time>
      </trkpt>
      <trkpt lat="43.55795" lon="6.00568">
        <ele>273.6</ele>
        <time>2017-02-15T13:28:24Z</time>
      </trkpt>
      <trkpt lat="43.55797" lon="6.0058">
        <ele>273.7</ele>
        <time>2017-02-15T13:28:32Z</time>
      </trkpt>
      <trkpt lat="43.55799" lon="6.00593">
        <ele>273.9</ele>
        <time>2017-02-15T13:28:43Z</time>
      </trkpt>
      <trkpt lat="43.55803" lon="6.00604">
        <ele>273.9</ele>
        <time>2017-02-15T13:28:54Z</time>
      </trkpt>
      <trkpt lat="43.55804" lon="6.00616">
        <ele>275</ele>
        <time>2017-02-15T13:29:05Z</time>
      </trkpt>
      <trkpt lat="43.55812" lon="6.00625">
        <ele>275.9</ele>
        <time>2017-02-15T13:29:14Z</time>
      </trkpt>
      <trkpt lat="43.55818" lon="6.00636">
        <ele>277.1</ele>
        <time>2017-02-15T13:29:26Z</time>
      </trkpt>
      <trkpt lat="43.55822" lon="6.00647">
        <ele>278.2</ele>
        <time>2017-02-15T13:29:37Z</time>
      </trkpt>
      <trkpt lat="43.55828" lon="6.00657">
        <ele>280.1</ele>
        <time>2017-02-15T13:29:50Z</time>
      </trkpt>
      <trkpt lat="43.55829" lon="6.0067">
        <ele>281.9</ele>
        <time>2017-02-15T13:30:02Z</time>
      </trkpt>
      <trkpt lat="43.5583" lon="6.00683">
        <ele>283.7</ele>
        <time>2017-02-15T13:30:12Z</time>
      </trkpt>
      <trkpt lat="43.55829" lon="6.00696">
        <ele>285.3</ele>
        <time>2017-02-15T13:30:22Z</time>
      </trkpt>
      <trkpt lat="43.55832" lon="6.00708">
        <ele>286.5</ele>
        <time>2017-02-15T13:30:32Z</time>
      </trkpt>
      <trkpt lat="43.55827" lon="6.00719">
        <ele>287.6</ele>
        <time>2017-02-15T13:30:45Z</time>
      </trkpt>
      <trkpt lat="43.55827" lon="6.00733">
        <ele>289.3</ele>
        <time>2017-02-15T13:30:58Z</time>
      </trkpt>
      <trkpt lat="43.5583" lon="6.00745">
        <ele>290.9</ele>
        <time>2017-02-15T13:31:09Z</time>
      </trkpt>
      <trkpt lat="43.55835" lon="6.00755">
        <ele>293.5</ele>
        <time>2017-02-15T13:31:22Z</time>
      </trkpt>
      <trkpt lat="43.55843" lon="6.0076">
        <ele>296.5</ele>
        <time>2017-02-15T13:31:38Z</time>
      </trkpt>
      <trkpt lat="43.5585" lon="6.0075">
        <ele>299.4</ele>
        <time>2017-02-15T13:31:54Z</time>
      </trkpt>
      <trkpt lat="43.55859" lon="6.00748">
        <ele>301.4</ele>
        <time>2017-02-15T13:32:08Z</time>
      </trkpt>
      <trkpt lat="43.55868" lon="6.00749">
        <ele>304.6</ele>
        <time>2017-02-15T13:32:27Z</time>
      </trkpt>
      <trkpt lat="43.55877" lon="6.00752">
        <ele>307.3</ele>
        <time>2017-02-15T13:32:44Z</time>
      </trkpt>
      <trkpt lat="43.55881" lon="6.00764">
        <ele>308.9</ele>
        <time>2017-02-15T13:32:53Z</time>
      </trkpt>
      <trkpt lat="43.55886" lon="6.00775">
        <ele>311.2</ele>
        <time>2017-02-15T13:33:04Z</time>
      </trkpt>
      <trkpt lat="43.55892" lon="6.00785">
        <ele>312.4</ele>
        <time>2017-02-15T13:33:15Z</time>
      </trkpt>
      <trkpt lat="43.55897" lon="6.00796">
        <ele>313.6</ele>
        <time>2017-02-15T13:33:25Z</time>
      </trkpt>
      <trkpt lat="43.55902" lon="6.00807">
        <ele>314.9</ele>
        <time>2017-02-15T13:33:35Z</time>
      </trkpt>
      <trkpt lat="43.55907" lon="6.00818">
        <ele>316.3</ele>
        <time>2017-02-15T13:33:45Z</time>
      </trkpt>
      <trkpt lat="43.55908" lon="6.00831">
        <ele>317.5</ele>
        <time>2017-02-15T13:35:35Z</time>
      </trkpt>
      <trkpt lat="43.559" lon="6.0084">
        <ele>317.2</ele>
        <time>2017-02-15T13:35:45Z</time>
      </trkpt>
      <trkpt lat="43.55895" lon="6.0085">
        <ele>317.2</ele>
        <time>2017-02-15T13:35:54Z</time>
      </trkpt>
      <trkpt lat="43.55888" lon="6.0086">
        <ele>316.8</ele>
        <time>2017-02-15T13:36:03Z</time>
      </trkpt>
      <trkpt lat="43.55882" lon="6.0087">
        <ele>316.6</ele>
        <time>2017-02-15T13:36:12Z</time>
      </trkpt>
      <trkpt lat="43.55878" lon="6.00882">
        <ele>315.9</ele>
        <time>2017-02-15T13:36:22Z</time>
      </trkpt>
      <trkpt lat="43.55872" lon="6.00892">
        <ele>316</ele>
        <time>2017-02-15T13:36:30Z</time>
      </trkpt>
      <trkpt lat="43.55866" lon="6.00903">
        <ele>316</ele>
        <time>2017-02-15T13:36:38Z</time>
      </trkpt>
      <trkpt lat="43.55863" lon="6.00915">
        <ele>315.6</ele>
        <time>2017-02-15T13:36:47Z</time>
      </trkpt>
      <trkpt lat="43.55863" lon="6.00928">
        <ele>315.3</ele>
        <time>2017-02-15T13:36:56Z</time>
      </trkpt>
      <trkpt lat="43.55867" lon="6.0094">
        <ele>315</ele>
        <time>2017-02-15T13:37:05Z</time>
      </trkpt>
      <trkpt lat="43.5587" lon="6.00953">
        <ele>314.8</ele>
        <time>2017-02-15T13:37:14Z</time>
      </trkpt>
      <trkpt lat="43.55869" lon="6.00967">
        <ele>314.1</ele>
        <time>2017-02-15T13:37:24Z</time>
      </trkpt>
      <trkpt lat="43.55869" lon="6.00979">
        <ele>313.7</ele>
        <time>2017-02-15T13:37:32Z</time>
      </trkpt>
      <trkpt lat="43.55866" lon="6.00992">
        <ele>313</ele>
        <time>2017-02-15T13:37:41Z</time>
      </trkpt>
      <trkpt lat="43.5586" lon="6.01002">
        <ele>312</ele>
        <time>2017-02-15T13:37:51Z</time>
      </trkpt>
      <trkpt lat="43.55851" lon="6.00997">
        <ele>311.8</ele>
        <time>2017-02-15T13:38:02Z</time>
      </trkpt>
      <trkpt lat="43.55842" lon="6.00991">
        <ele>310.6</ele>
        <time>2017-02-15T13:38:12Z</time>
      </trkpt>
      <trkpt lat="43.55836" lon="6.01001">
        <ele>309.6</ele>
        <time>2017-02-15T13:38:25Z</time>
      </trkpt>
      <trkpt lat="43.55834" lon="6.01013">
        <ele>309.6</ele>
        <time>2017-02-15T13:38:34Z</time>
      </trkpt>
      <trkpt lat="43.55834" lon="6.01026">
        <ele>310</ele>
        <time>2017-02-15T13:38:43Z</time>
      </trkpt>
      <trkpt lat="43.55834" lon="6.01039">
        <ele>311.1</ele>
        <time>2017-02-15T13:38:52Z</time>
      </trkpt>
      <trkpt lat="43.55835" lon="6.01051">
        <ele>312</ele>
        <time>2017-02-15T13:39:00Z</time>
      </trkpt>
      <trkpt lat="43.55834" lon="6.01064">
        <ele>312.7</ele>
        <time>2017-02-15T13:39:09Z</time>
      </trkpt>
      <trkpt lat="43.55826" lon="6.0107">
        <ele>312.7</ele>
        <time>2017-02-15T13:39:18Z</time>
      </trkpt>
      <trkpt lat="43.55817" lon="6.01074">
        <ele>312.7</ele>
        <time>2017-02-15T13:39:28Z</time>
      </trkpt>
      <trkpt lat="43.55807" lon="6.01078">
        <ele>313.1</ele>
        <time>2017-02-15T13:39:38Z</time>
      </trkpt>
      <trkpt lat="43.55798" lon="6.01081">
        <ele>312.5</ele>
        <time>2017-02-15T13:39:47Z</time>
      </trkpt>
      <trkpt lat="43.55788" lon="6.01084">
        <ele>312.4</ele>
        <time>2017-02-15T13:39:55Z</time>
      </trkpt>
      <trkpt lat="43.55779" lon="6.01087">
        <ele>312.4</ele>
        <time>2017-02-15T13:40:03Z</time>
      </trkpt>
      <trkpt lat="43.55769" lon="6.01094">
        <ele>311.9</ele>
        <time>2017-02-15T13:40:11Z</time>
      </trkpt>
      <trkpt lat="43.55765" lon="6.01105">
        <ele>311.4</ele>
        <time>2017-02-15T13:40:19Z</time>
      </trkpt>
      <trkpt lat="43.55758" lon="6.01113">
        <ele>311.6</ele>
        <time>2017-02-15T13:40:29Z</time>
      </trkpt>
      <trkpt lat="43.55749" lon="6.01118">
        <ele>311.2</ele>
        <time>2017-02-15T13:40:41Z</time>
      </trkpt>
      <trkpt lat="43.5574" lon="6.01122">
        <ele>310.7</ele>
        <time>2017-02-15T13:40:49Z</time>
      </trkpt>
      <trkpt lat="43.55731" lon="6.01127">
        <ele>310.1</ele>
        <time>2017-02-15T13:40:59Z</time>
      </trkpt>
      <trkpt lat="43.55721" lon="6.01129">
        <ele>309.8</ele>
        <time>2017-02-15T13:41:07Z</time>
      </trkpt>
      <trkpt lat="43.55712" lon="6.01132">
        <ele>309.4</ele>
        <time>2017-02-15T13:41:15Z</time>
      </trkpt>
      <trkpt lat="43.55704" lon="6.0114">
        <ele>309</ele>
        <time>2017-02-15T13:41:24Z</time>
      </trkpt>
      <trkpt lat="43.55697" lon="6.0115">
        <ele>308.8</ele>
        <time>2017-02-15T13:41:32Z</time>
      </trkpt>
      <trkpt lat="43.55692" lon="6.01161">
        <ele>307.9</ele>
        <time>2017-02-15T13:41:41Z</time>
      </trkpt>
      <trkpt lat="43.55688" lon="6.01174">
        <ele>307.6</ele>
        <time>2017-02-15T13:41:51Z</time>
      </trkpt>
      <trkpt lat="43.55684" lon="6.01186">
        <ele>307</ele>
        <time>2017-02-15T13:42:01Z</time>
      </trkpt>
      <trkpt lat="43.5568" lon="6.01197">
        <ele>306.1</ele>
        <time>2017-02-15T13:42:13Z</time>
      </trkpt>
      <trkpt lat="43.55676" lon="6.01208">
        <ele>305.6</ele>
        <time>2017-02-15T13:42:37Z</time>
      </trkpt>
      <trkpt lat="43.55671" lon="6.01219">
        <ele>305.5</ele>
        <time>2017-02-15T13:44:30Z</time>
      </trkpt>
      <trkpt lat="43.5568" lon="6.01219">
        <ele>305.1</ele>
        <time>2017-02-15T13:45:42Z</time>
      </trkpt>
      <trkpt lat="43.55671" lon="6.0122">
        <ele>305.3</ele>
        <time>2017-02-15T13:46:11Z</time>
      </trkpt>
      <trkpt lat="43.55669" lon="6.01233">
        <ele>305</ele>
        <time>2017-02-15T13:47:41Z</time>
      </trkpt>
      <trkpt lat="43.5566" lon="6.01232">
        <ele>302.8</ele>
        <time>2017-02-15T13:48:21Z</time>
      </trkpt>
      <trkpt lat="43.55655" lon="6.01221">
        <ele>301.6</ele>
        <time>2017-02-15T13:48:30Z</time>
      </trkpt>
      <trkpt lat="43.55653" lon="6.01208">
        <ele>293.9</ele>
        <time>2017-02-15T13:49:13Z</time>
      </trkpt>
      <trkpt lat="43.55652" lon="6.01221">
        <ele>285.2</ele>
        <time>2017-02-15T13:50:37Z</time>
      </trkpt>
      <trkpt lat="43.55661" lon="6.01223">
        <ele>284.2</ele>
        <time>2017-02-15T13:51:47Z</time>
      </trkpt>
      <trkpt lat="43.55652" lon="6.01223">
        <ele>284.3</ele>
        <time>2017-02-15T13:53:28Z</time>
      </trkpt>
      <trkpt lat="43.55649" lon="6.01212">
        <ele>286.5</ele>
        <time>2017-02-15T13:54:57Z</time>
      </trkpt>
      <trkpt lat="43.55649" lon="6.01199">
        <ele>288.1</ele>
        <time>2017-02-15T13:55:12Z</time>
      </trkpt>
      <trkpt lat="43.55654" lon="6.01209">
        <ele>295.4</ele>
        <time>2017-02-15T13:56:05Z</time>
      </trkpt>
      <trkpt lat="43.55653" lon="6.01221">
        <ele>297.2</ele>
        <time>2017-02-15T13:56:18Z</time>
      </trkpt>
      <trkpt lat="43.55644" lon="6.01222">
        <ele>300.6</ele>
        <time>2017-02-15T13:56:55Z</time>
      </trkpt>
      <trkpt lat="43.55641" lon="6.01234">
        <ele>298.6</ele>
        <time>2017-02-15T13:57:19Z</time>
      </trkpt>
      <trkpt lat="43.55643" lon="6.01246">
        <ele>297.3</ele>
        <time>2017-02-15T13:57:31Z</time>
      </trkpt>
      <trkpt lat="43.55649" lon="6.01255">
        <ele>296.8</ele>
        <time>2017-02-15T13:57:41Z</time>
      </trkpt>
      <trkpt lat="43.55654" lon="6.01267">
        <ele>296.4</ele>
        <time>2017-02-15T13:57:52Z</time>
      </trkpt>
      <trkpt lat="43.55651" lon="6.01279">
        <ele>294.8</ele>
        <time>2017-02-15T13:58:18Z</time>
      </trkpt>
      <trkpt lat="43.55646" lon="6.0129">
        <ele>293.5</ele>
        <time>2017-02-15T13:58:45Z</time>
      </trkpt>
      <trkpt lat="43.55645" lon="6.01302">
        <ele>296.5</ele>
        <time>2017-02-15T13:59:09Z</time>
      </trkpt>
      <trkpt lat="43.55653" lon="6.01309">
        <ele>299.2</ele>
        <time>2017-02-15T13:59:36Z</time>
      </trkpt>
      <trkpt lat="43.55663" lon="6.01312">
        <ele>298.4</ele>
        <time>2017-02-15T13:59:54Z</time>
      </trkpt>
      <trkpt lat="43.55672" lon="6.01314">
        <ele>299.1</ele>
        <time>2017-02-15T14:00:05Z</time>
      </trkpt>
      <trkpt lat="43.5568" lon="6.01319">
        <ele>298</ele>
        <time>2017-02-15T14:00:41Z</time>
      </trkpt>
      <trkpt lat="43.55689" lon="6.0132">
        <ele>298</ele>
        <time>2017-02-15T14:02:46Z</time>
      </trkpt>
      <trkpt lat="43.55696" lon="6.01313">
        <ele>297.5</ele>
        <time>2017-02-15T14:03:17Z</time>
      </trkpt>
      <trkpt lat="43.55691" lon="6.01323">
        <ele>298.1</ele>
        <time>2017-02-15T14:03:59Z</time>
      </trkpt>
      <trkpt lat="43.55682" lon="6.01325">
        <ele>298.1</ele>
        <time>2017-02-15T14:04:33Z</time>
      </trkpt>
      <trkpt lat="43.55685" lon="6.01336">
        <ele>302.6</ele>
        <time>2017-02-15T14:05:14Z</time>
      </trkpt>
      <trkpt lat="43.55677" lon="6.01331">
        <ele>302</ele>
        <time>2017-02-15T14:06:00Z</time>
      </trkpt>
      <trkpt lat="43.55669" lon="6.01337">
        <ele>302.2</ele>
        <time>2017-02-15T14:06:15Z</time>
      </trkpt>
      <trkpt lat="43.5566" lon="6.0134">
        <ele>302.5</ele>
        <time>2017-02-15T14:06:42Z</time>
      </trkpt>
      <trkpt lat="43.55652" lon="6.01346">
        <ele>302.6</ele>
        <time>2017-02-15T14:07:12Z</time>
      </trkpt>
      <trkpt lat="43.55649" lon="6.01358">
        <ele>307.4</ele>
        <time>2017-02-15T14:07:54Z</time>
      </trkpt>
      <trkpt lat="43.55645" lon="6.0137">
        <ele>311.6</ele>
        <time>2017-02-15T14:08:20Z</time>
      </trkpt>
      <trkpt lat="43.55637" lon="6.01376">
        <ele>314.4</ele>
        <time>2017-02-15T14:08:42Z</time>
      </trkpt>
      <trkpt lat="43.55643" lon="6.01385">
        <ele>318.7</ele>
        <time>2017-02-15T14:09:06Z</time>
      </trkpt>
      <trkpt lat="43.55652" lon="6.01385">
        <ele>323.3</ele>
        <time>2017-02-15T14:09:34Z</time>
      </trkpt>
      <trkpt lat="43.55662" lon="6.01387">
        <ele>326.7</ele>
        <time>2017-02-15T14:09:57Z</time>
      </trkpt>
      <trkpt lat="43.5567" lon="6.01381">
        <ele>328</ele>
        <time>2017-02-15T14:10:13Z</time>
      </trkpt>
      <trkpt lat="43.5569" lon="6.01366">
        <ele>328</ele>
        <time>2017-02-15T14:10:52Z</time>
      </trkpt>
      <trkpt lat="43.55697" lon="6.01414">
        <ele>328.2</ele>
        <time>2017-02-15T14:11:47Z</time>
      </trkpt>
      <trkpt lat="43.55688" lon="6.01402">
        <ele>328.2</ele>
        <time>2017-02-15T14:11:50Z</time>
      </trkpt>
      <trkpt lat="43.55682" lon="6.01392">
        <ele>328.2</ele>
        <time>2017-02-15T14:11:53Z</time>
      </trkpt>
      <trkpt lat="43.55676" lon="6.01381">
        <ele>327.6</ele>
        <time>2017-02-15T14:12:09Z</time>
      </trkpt>
      <trkpt lat="43.55667" lon="6.01382">
        <ele>327.5</ele>
        <time>2017-02-15T14:12:42Z</time>
      </trkpt>
      <trkpt lat="43.55674" lon="6.0139">
        <ele>328.2</ele>
        <time>2017-02-15T14:13:17Z</time>
      </trkpt>
      <trkpt lat="43.55668" lon="6.01379">
        <ele>329</ele>
        <time>2017-02-15T14:16:13Z</time>
      </trkpt>
      <trkpt lat="43.55662" lon="6.0139">
        <ele>328.1</ele>
        <time>2017-02-15T14:20:43Z</time>
      </trkpt>
      <trkpt lat="43.55654" lon="6.01383">
        <ele>325.7</ele>
        <time>2017-02-15T14:21:06Z</time>
      </trkpt>
      <trkpt lat="43.55646" lon="6.01377">
        <ele>322.8</ele>
        <time>2017-02-15T14:21:23Z</time>
      </trkpt>
      <trkpt lat="43.55638" lon="6.01372">
        <ele>318.8</ele>
        <time>2017-02-15T14:21:43Z</time>
      </trkpt>
      <trkpt lat="43.55629" lon="6.01373">
        <ele>317.5</ele>
        <time>2017-02-15T14:21:55Z</time>
      </trkpt>
      <trkpt lat="43.55619" lon="6.01375">
        <ele>318.5</ele>
        <time>2017-02-15T14:22:19Z</time>
      </trkpt>
      <trkpt lat="43.5561" lon="6.0137">
        <ele>319</ele>
        <time>2017-02-15T14:22:28Z</time>
      </trkpt>
      <trkpt lat="43.55603" lon="6.01378">
        <ele>324.6</ele>
        <time>2017-02-15T14:23:00Z</time>
      </trkpt>
      <trkpt lat="43.55605" lon="6.0139">
        <ele>329.7</ele>
        <time>2017-02-15T14:23:33Z</time>
      </trkpt>
      <trkpt lat="43.55596" lon="6.01393">
        <ele>336</ele>
        <time>2017-02-15T14:24:23Z</time>
      </trkpt>
      <trkpt lat="43.55592" lon="6.01404">
        <ele>340.2</ele>
        <time>2017-02-15T14:24:48Z</time>
      </trkpt>
      <trkpt lat="43.55593" lon="6.01417">
        <ele>345.1</ele>
        <time>2017-02-15T14:25:21Z</time>
      </trkpt>
      <trkpt lat="43.55585" lon="6.01424">
        <ele>348.6</ele>
        <time>2017-02-15T14:25:44Z</time>
      </trkpt>
      <trkpt lat="43.55579" lon="6.01433">
        <ele>353.8</ele>
        <time>2017-02-15T14:26:19Z</time>
      </trkpt>
      <trkpt lat="43.5557" lon="6.01433">
        <ele>358.1</ele>
        <time>2017-02-15T14:26:54Z</time>
      </trkpt>
      <trkpt lat="43.55563" lon="6.01424">
        <ele>359.8</ele>
        <time>2017-02-15T14:27:14Z</time>
      </trkpt>
      <trkpt lat="43.55557" lon="6.01415">
        <ele>362.2</ele>
        <time>2017-02-15T14:27:41Z</time>
      </trkpt>
      <trkpt lat="43.55553" lon="6.01403">
        <ele>364.8</ele>
        <time>2017-02-15T14:28:07Z</time>
      </trkpt>
      <trkpt lat="43.55554" lon="6.01391">
        <ele>365.2</ele>
        <time>2017-02-15T14:28:26Z</time>
      </trkpt>
      <trkpt lat="43.55557" lon="6.01379">
        <ele>365.1</ele>
        <time>2017-02-15T14:28:51Z</time>
      </trkpt>
      <trkpt lat="43.55557" lon="6.01366">
        <ele>365.2</ele>
        <time>2017-02-15T14:29:10Z</time>
      </trkpt>
      <trkpt lat="43.55556" lon="6.01352">
        <ele>365.4</ele>
        <time>2017-02-15T14:29:23Z</time>
      </trkpt>
      <trkpt lat="43.55558" lon="6.0134">
        <ele>365</ele>
        <time>2017-02-15T14:29:40Z</time>
      </trkpt>
      <trkpt lat="43.55557" lon="6.01326">
        <ele>363.6</ele>
        <time>2017-02-15T14:29:59Z</time>
      </trkpt>
      <trkpt lat="43.55555" lon="6.01314">
        <ele>363.8</ele>
        <time>2017-02-15T14:30:15Z</time>
      </trkpt>
      <trkpt lat="43.55547" lon="6.01307">
        <ele>366.4</ele>
        <time>2017-02-15T14:30:43Z</time>
      </trkpt>
      <trkpt lat="43.5554" lon="6.01315">
        <ele>367.9</ele>
        <time>2017-02-15T14:35:53Z</time>
      </trkpt>
      <trkpt lat="43.55539" lon="6.01328">
        <ele>367.5</ele>
        <time>2017-02-15T14:36:05Z</time>
      </trkpt>
      <trkpt lat="43.55537" lon="6.0134">
        <ele>367.4</ele>
        <time>2017-02-15T14:36:17Z</time>
      </trkpt>
      <trkpt lat="43.55536" lon="6.01353">
        <ele>368</ele>
        <time>2017-02-15T14:36:28Z</time>
      </trkpt>
      <trkpt lat="43.55534" lon="6.01366">
        <ele>368.6</ele>
        <time>2017-02-15T14:36:38Z</time>
      </trkpt>
      <trkpt lat="43.55532" lon="6.01379">
        <ele>369.7</ele>
        <time>2017-02-15T14:36:47Z</time>
      </trkpt>
      <trkpt lat="43.5553" lon="6.01393">
        <ele>370.1</ele>
        <time>2017-02-15T14:36:56Z</time>
      </trkpt>
      <trkpt lat="43.55527" lon="6.01405">
        <ele>370.9</ele>
        <time>2017-02-15T14:37:04Z</time>
      </trkpt>
      <trkpt lat="43.55523" lon="6.01417">
        <ele>371.7</ele>
        <time>2017-02-15T14:37:13Z</time>
      </trkpt>
      <trkpt lat="43.55518" lon="6.01428">
        <ele>372.4</ele>
        <time>2017-02-15T14:37:22Z</time>
      </trkpt>
      <trkpt lat="43.55512" lon="6.01438">
        <ele>373.8</ele>
        <time>2017-02-15T14:37:30Z</time>
      </trkpt>
      <trkpt lat="43.55506" lon="6.01447">
        <ele>374.7</ele>
        <time>2017-02-15T14:37:38Z</time>
      </trkpt>
      <trkpt lat="43.555" lon="6.01458">
        <ele>375.8</ele>
        <time>2017-02-15T14:37:47Z</time>
      </trkpt>
      <trkpt lat="43.55494" lon="6.01469">
        <ele>377</ele>
        <time>2017-02-15T14:37:56Z</time>
      </trkpt>
      <trkpt lat="43.55489" lon="6.0148">
        <ele>378.3</ele>
        <time>2017-02-15T14:38:05Z</time>
      </trkpt>
      <trkpt lat="43.55483" lon="6.0149">
        <ele>379.7</ele>
        <time>2017-02-15T14:38:14Z</time>
      </trkpt>
      <trkpt lat="43.55478" lon="6.01501">
        <ele>381</ele>
        <time>2017-02-15T14:38:24Z</time>
      </trkpt>
      <trkpt lat="43.55472" lon="6.01511">
        <ele>382.2</ele>
        <time>2017-02-15T14:38:33Z</time>
      </trkpt>
      <trkpt lat="43.55468" lon="6.01522">
        <ele>383.5</ele>
        <time>2017-02-15T14:38:42Z</time>
      </trkpt>
      <trkpt lat="43.55463" lon="6.01534">
        <ele>384.5</ele>
        <time>2017-02-15T14:38:51Z</time>
      </trkpt>
      <trkpt lat="43.55457" lon="6.01543">
        <ele>385.4</ele>
        <time>2017-02-15T14:39:00Z</time>
      </trkpt>
      <trkpt lat="43.55448" lon="6.01551">
        <ele>386.5</ele>
        <time>2017-02-15T14:39:09Z</time>
      </trkpt>
      <trkpt lat="43.55439" lon="6.01554">
        <ele>387.6</ele>
        <time>2017-02-15T14:39:17Z</time>
      </trkpt>
      <trkpt lat="43.5543" lon="6.01558">
        <ele>388.5</ele>
        <time>2017-02-15T14:39:26Z</time>
      </trkpt>
      <trkpt lat="43.55422" lon="6.01565">
        <ele>389.3</ele>
        <time>2017-02-15T14:39:34Z</time>
      </trkpt>
      <trkpt lat="43.55416" lon="6.01575">
        <ele>390.1</ele>
        <time>2017-02-15T14:39:43Z</time>
      </trkpt>
      <trkpt lat="43.55411" lon="6.01585">
        <ele>390.7</ele>
        <time>2017-02-15T14:39:51Z</time>
      </trkpt>
      <trkpt lat="43.55405" lon="6.01596">
        <ele>391.1</ele>
        <time>2017-02-15T14:39:59Z</time>
      </trkpt>
      <trkpt lat="43.554" lon="6.01608">
        <ele>391.4</ele>
        <time>2017-02-15T14:40:07Z</time>
      </trkpt>
      <trkpt lat="43.55394" lon="6.01619">
        <ele>391.7</ele>
        <time>2017-02-15T14:40:15Z</time>
      </trkpt>
      <trkpt lat="43.55388" lon="6.0163">
        <ele>392</ele>
        <time>2017-02-15T14:40:23Z</time>
      </trkpt>
      <trkpt lat="43.55383" lon="6.01641">
        <ele>392.1</ele>
        <time>2017-02-15T14:40:31Z</time>
      </trkpt>
      <trkpt lat="43.55377" lon="6.01652">
        <ele>392.5</ele>
        <time>2017-02-15T14:40:39Z</time>
      </trkpt>
      <trkpt lat="43.55372" lon="6.01663">
        <ele>393.1</ele>
        <time>2017-02-15T14:40:47Z</time>
      </trkpt>
      <trkpt lat="43.55366" lon="6.01673">
        <ele>393.6</ele>
        <time>2017-02-15T14:40:55Z</time>
      </trkpt>
      <trkpt lat="43.55361" lon="6.01683">
        <ele>394</ele>
        <time>2017-02-15T14:41:03Z</time>
      </trkpt>
      <trkpt lat="43.55355" lon="6.01694">
        <ele>394.8</ele>
        <time>2017-02-15T14:41:12Z</time>
      </trkpt>
      <trkpt lat="43.5535" lon="6.01706">
        <ele>395.7</ele>
        <time>2017-02-15T14:41:21Z</time>
      </trkpt>
      <trkpt lat="43.55344" lon="6.01717">
        <ele>396.6</ele>
        <time>2017-02-15T14:41:30Z</time>
      </trkpt>
      <trkpt lat="43.55338" lon="6.01728">
        <ele>397.3</ele>
        <time>2017-02-15T14:41:39Z</time>
      </trkpt>
      <trkpt lat="43.55333" lon="6.01739">
        <ele>397.8</ele>
        <time>2017-02-15T14:41:48Z</time>
      </trkpt>
      <trkpt lat="43.55329" lon="6.01751">
        <ele>398.7</ele>
        <time>2017-02-15T14:41:57Z</time>
      </trkpt>
      <trkpt lat="43.55322" lon="6.0176">
        <ele>399.2</ele>
        <time>2017-02-15T14:42:05Z</time>
      </trkpt>
      <trkpt lat="43.55316" lon="6.01771">
        <ele>400.1</ele>
        <time>2017-02-15T14:42:13Z</time>
      </trkpt>
      <trkpt lat="43.5531" lon="6.01781">
        <ele>400.9</ele>
        <time>2017-02-15T14:42:21Z</time>
      </trkpt>
      <trkpt lat="43.55304" lon="6.01792">
        <ele>401.6</ele>
        <time>2017-02-15T14:42:29Z</time>
      </trkpt>
      <trkpt lat="43.55298" lon="6.01804">
        <ele>402</ele>
        <time>2017-02-15T14:42:37Z</time>
      </trkpt>
      <trkpt lat="43.55293" lon="6.01815">
        <ele>402.7</ele>
        <time>2017-02-15T14:42:45Z</time>
      </trkpt>
      <trkpt lat="43.55287" lon="6.01825">
        <ele>403.3</ele>
        <time>2017-02-15T14:42:53Z</time>
      </trkpt>
      <trkpt lat="43.55282" lon="6.01836">
        <ele>403.2</ele>
        <time>2017-02-15T14:43:01Z</time>
      </trkpt>
      <trkpt lat="43.55277" lon="6.01849">
        <ele>403.8</ele>
        <time>2017-02-15T14:43:09Z</time>
      </trkpt>
      <trkpt lat="43.55273" lon="6.01861">
        <ele>404.2</ele>
        <time>2017-02-15T14:43:17Z</time>
      </trkpt>
      <trkpt lat="43.55269" lon="6.01873">
        <ele>404.5</ele>
        <time>2017-02-15T14:43:25Z</time>
      </trkpt>
      <trkpt lat="43.55265" lon="6.01886">
        <ele>404.8</ele>
        <time>2017-02-15T14:43:34Z</time>
      </trkpt>
      <trkpt lat="43.55261" lon="6.01898">
        <ele>404.9</ele>
        <time>2017-02-15T14:43:43Z</time>
      </trkpt>
      <trkpt lat="43.55255" lon="6.01909">
        <ele>404.2</ele>
        <time>2017-02-15T14:43:53Z</time>
      </trkpt>
      <trkpt lat="43.55249" lon="6.01918">
        <ele>404</ele>
        <time>2017-02-15T14:44:02Z</time>
      </trkpt>
      <trkpt lat="43.55243" lon="6.01929">
        <ele>402.8</ele>
        <time>2017-02-15T14:44:11Z</time>
      </trkpt>
      <trkpt lat="43.55236" lon="6.01937">
        <ele>401</ele>
        <time>2017-02-15T14:44:21Z</time>
      </trkpt>
      <trkpt lat="43.55232" lon="6.01949">
        <ele>399.4</ele>
        <time>2017-02-15T14:44:32Z</time>
      </trkpt>
      <trkpt lat="43.55225" lon="6.01958">
        <ele>397.8</ele>
        <time>2017-02-15T14:44:41Z</time>
      </trkpt>
      <trkpt lat="43.55217" lon="6.01967">
        <ele>396.6</ele>
        <time>2017-02-15T14:44:50Z</time>
      </trkpt>
      <trkpt lat="43.55209" lon="6.01974">
        <ele>394.8</ele>
        <time>2017-02-15T14:44:58Z</time>
      </trkpt>
      <trkpt lat="43.55202" lon="6.01982">
        <ele>393.8</ele>
        <time>2017-02-15T14:45:06Z</time>
      </trkpt>
      <trkpt lat="43.55194" lon="6.01989">
        <ele>392.5</ele>
        <time>2017-02-15T14:45:13Z</time>
      </trkpt>
      <trkpt lat="43.55186" lon="6.01999">
        <ele>391.3</ele>
        <time>2017-02-15T14:45:22Z</time>
      </trkpt>
      <trkpt lat="43.55179" lon="6.02009">
        <ele>390</ele>
        <time>2017-02-15T14:45:30Z</time>
      </trkpt>
      <trkpt lat="43.55171" lon="6.02017">
        <ele>388.4</ele>
        <time>2017-02-15T14:45:40Z</time>
      </trkpt>
      <trkpt lat="43.55163" lon="6.02025">
        <ele>387.1</ele>
        <time>2017-02-15T14:45:48Z</time>
      </trkpt>
      <trkpt lat="43.55157" lon="6.02034">
        <ele>385.6</ele>
        <time>2017-02-15T14:45:57Z</time>
      </trkpt>
      <trkpt lat="43.55151" lon="6.02043">
        <ele>384.8</ele>
        <time>2017-02-15T14:46:04Z</time>
      </trkpt>
      <trkpt lat="43.55143" lon="6.02051">
        <ele>383</ele>
        <time>2017-02-15T14:46:12Z</time>
      </trkpt>
      <trkpt lat="43.55136" lon="6.02058">
        <ele>381.8</ele>
        <time>2017-02-15T14:46:19Z</time>
      </trkpt>
      <trkpt lat="43.55129" lon="6.02067">
        <ele>380.4</ele>
        <time>2017-02-15T14:46:26Z</time>
      </trkpt>
      <trkpt lat="43.55123" lon="6.02077">
        <ele>378.9</ele>
        <time>2017-02-15T14:46:35Z</time>
      </trkpt>
      <trkpt lat="43.55127" lon="6.0209">
        <ele>376.8</ele>
        <time>2017-02-15T14:46:47Z</time>
      </trkpt>
      <trkpt lat="43.55133" lon="6.021">
        <ele>375.5</ele>
        <time>2017-02-15T14:46:57Z</time>
      </trkpt>
      <trkpt lat="43.55142" lon="6.02105">
        <ele>374</ele>
        <time>2017-02-15T14:47:06Z</time>
      </trkpt>
      <trkpt lat="43.55151" lon="6.02108">
        <ele>372.2</ele>
        <time>2017-02-15T14:47:16Z</time>
      </trkpt>
      <trkpt lat="43.55161" lon="6.02108">
        <ele>370.6</ele>
        <time>2017-02-15T14:47:26Z</time>
      </trkpt>
      <trkpt lat="43.5517" lon="6.02109">
        <ele>369.1</ele>
        <time>2017-02-15T14:47:42Z</time>
      </trkpt>
      <trkpt lat="43.55179" lon="6.02112">
        <ele>368.2</ele>
        <time>2017-02-15T14:47:50Z</time>
      </trkpt>
      <trkpt lat="43.55188" lon="6.02111">
        <ele>367.4</ele>
        <time>2017-02-15T14:47:58Z</time>
      </trkpt>
      <trkpt lat="43.55198" lon="6.02111">
        <ele>366.6</ele>
        <time>2017-02-15T14:48:08Z</time>
      </trkpt>
      <trkpt lat="43.55207" lon="6.02111">
        <ele>366</ele>
        <time>2017-02-15T14:48:17Z</time>
      </trkpt>
      <trkpt lat="43.55217" lon="6.02113">
        <ele>364.8</ele>
        <time>2017-02-15T14:48:42Z</time>
      </trkpt>
      <trkpt lat="43.55225" lon="6.02118">
        <ele>364.6</ele>
        <time>2017-02-15T14:49:59Z</time>
      </trkpt>
      <trkpt lat="43.55219" lon="6.02127">
        <ele>365.2</ele>
        <time>2017-02-15T14:53:18Z</time>
      </trkpt>
      <trkpt lat="43.55214" lon="6.02138">
        <ele>364.6</ele>
        <time>2017-02-15T14:53:33Z</time>
      </trkpt>
      <trkpt lat="43.55205" lon="6.02143">
        <ele>364.2</ele>
        <time>2017-02-15T14:53:42Z</time>
      </trkpt>
      <trkpt lat="43.55197" lon="6.02147">
        <ele>364.1</ele>
        <time>2017-02-15T14:53:50Z</time>
      </trkpt>
      <trkpt lat="43.55188" lon="6.02151">
        <ele>363.9</ele>
        <time>2017-02-15T14:53:58Z</time>
      </trkpt>
      <trkpt lat="43.55179" lon="6.02155">
        <ele>363.9</ele>
        <time>2017-02-15T14:54:07Z</time>
      </trkpt>
      <trkpt lat="43.55169" lon="6.0216">
        <ele>364.2</ele>
        <time>2017-02-15T14:54:16Z</time>
      </trkpt>
      <trkpt lat="43.5516" lon="6.02163">
        <ele>364.5</ele>
        <time>2017-02-15T14:54:24Z</time>
      </trkpt>
      <trkpt lat="43.55151" lon="6.02166">
        <ele>364.5</ele>
        <time>2017-02-15T14:54:32Z</time>
      </trkpt>
      <trkpt lat="43.55141" lon="6.02168">
        <ele>364.6</ele>
        <time>2017-02-15T14:54:40Z</time>
      </trkpt>
      <trkpt lat="43.55133" lon="6.02173">
        <ele>364.7</ele>
        <time>2017-02-15T14:54:48Z</time>
      </trkpt>
      <trkpt lat="43.55124" lon="6.02178">
        <ele>364.8</ele>
        <time>2017-02-15T14:54:56Z</time>
      </trkpt>
      <trkpt lat="43.55116" lon="6.02186">
        <ele>364.9</ele>
        <time>2017-02-15T14:55:03Z</time>
      </trkpt>
      <trkpt lat="43.5511" lon="6.02196">
        <ele>365.1</ele>
        <time>2017-02-15T14:55:11Z</time>
      </trkpt>
      <trkpt lat="43.55104" lon="6.02205">
        <ele>365.5</ele>
        <time>2017-02-15T14:55:19Z</time>
      </trkpt>
      <trkpt lat="43.55096" lon="6.02212">
        <ele>365.7</ele>
        <time>2017-02-15T14:55:27Z</time>
      </trkpt>
      <trkpt lat="43.55088" lon="6.0222">
        <ele>366.4</ele>
        <time>2017-02-15T14:55:37Z</time>
      </trkpt>
      <trkpt lat="43.55081" lon="6.0223">
        <ele>366.8</ele>
        <time>2017-02-15T14:55:47Z</time>
      </trkpt>
      <trkpt lat="43.55076" lon="6.0224">
        <ele>367.4</ele>
        <time>2017-02-15T14:55:55Z</time>
      </trkpt>
      <trkpt lat="43.55072" lon="6.02252">
        <ele>368.1</ele>
        <time>2017-02-15T14:56:05Z</time>
      </trkpt>
      <trkpt lat="43.55069" lon="6.02266">
        <ele>368.7</ele>
        <time>2017-02-15T14:56:14Z</time>
      </trkpt>
      <trkpt lat="43.55068" lon="6.02279">
        <ele>369.3</ele>
        <time>2017-02-15T14:56:23Z</time>
      </trkpt>
      <trkpt lat="43.55068" lon="6.02292">
        <ele>370</ele>
        <time>2017-02-15T14:56:32Z</time>
      </trkpt>
      <trkpt lat="43.55066" lon="6.02304">
        <ele>370.7</ele>
        <time>2017-02-15T14:56:40Z</time>
      </trkpt>
      <trkpt lat="43.55064" lon="6.02316">
        <ele>371.6</ele>
        <time>2017-02-15T14:56:48Z</time>
      </trkpt>
      <trkpt lat="43.55062" lon="6.02329">
        <ele>372.4</ele>
        <time>2017-02-15T14:56:56Z</time>
      </trkpt>
      <trkpt lat="43.55059" lon="6.02341">
        <ele>373</ele>
        <time>2017-02-15T14:57:04Z</time>
      </trkpt>
      <trkpt lat="43.55055" lon="6.02353">
        <ele>374</ele>
        <time>2017-02-15T14:57:13Z</time>
      </trkpt>
      <trkpt lat="43.55049" lon="6.02364">
        <ele>375.3</ele>
        <time>2017-02-15T14:57:23Z</time>
      </trkpt>
      <trkpt lat="43.55043" lon="6.02374">
        <ele>376.6</ele>
        <time>2017-02-15T14:57:32Z</time>
      </trkpt>
      <trkpt lat="43.55037" lon="6.02384">
        <ele>378.4</ele>
        <time>2017-02-15T14:57:41Z</time>
      </trkpt>
      <trkpt lat="43.5503" lon="6.02393">
        <ele>380</ele>
        <time>2017-02-15T14:57:51Z</time>
      </trkpt>
      <trkpt lat="43.55022" lon="6.02402">
        <ele>381.2</ele>
        <time>2017-02-15T14:58:01Z</time>
      </trkpt>
      <trkpt lat="43.55015" lon="6.0241">
        <ele>382.4</ele>
        <time>2017-02-15T14:58:11Z</time>
      </trkpt>
      <trkpt lat="43.55006" lon="6.02416">
        <ele>383.2</ele>
        <time>2017-02-15T14:58:20Z</time>
      </trkpt>
      <trkpt lat="43.54998" lon="6.02424">
        <ele>383.9</ele>
        <time>2017-02-15T14:58:30Z</time>
      </trkpt>
      <trkpt lat="43.54991" lon="6.02432">
        <ele>384.2</ele>
        <time>2017-02-15T14:58:39Z</time>
      </trkpt>
      <trkpt lat="43.54984" lon="6.02441">
        <ele>384</ele>
        <time>2017-02-15T14:58:47Z</time>
      </trkpt>
      <trkpt lat="43.54976" lon="6.02449">
        <ele>384.4</ele>
        <time>2017-02-15T14:58:55Z</time>
      </trkpt>
      <trkpt lat="43.54968" lon="6.02456">
        <ele>384.7</ele>
        <time>2017-02-15T14:59:02Z</time>
      </trkpt>
      <trkpt lat="43.54959" lon="6.02463">
        <ele>385</ele>
        <time>2017-02-15T14:59:11Z</time>
      </trkpt>
      <trkpt lat="43.5495" lon="6.02469">
        <ele>385.5</ele>
        <time>2017-02-15T14:59:21Z</time>
      </trkpt>
      <trkpt lat="43.54941" lon="6.02474">
        <ele>386</ele>
        <time>2017-02-15T14:59:29Z</time>
      </trkpt>
      <trkpt lat="43.54932" lon="6.02479">
        <ele>386.4</ele>
        <time>2017-02-15T14:59:36Z</time>
      </trkpt>
      <trkpt lat="43.54924" lon="6.02485">
        <ele>386.8</ele>
        <time>2017-02-15T14:59:43Z</time>
      </trkpt>
      <trkpt lat="43.54916" lon="6.02491">
        <ele>387.6</ele>
        <time>2017-02-15T14:59:51Z</time>
      </trkpt>
      <trkpt lat="43.54908" lon="6.02496">
        <ele>388</ele>
        <time>2017-02-15T14:59:58Z</time>
      </trkpt>
      <trkpt lat="43.54898" lon="6.025">
        <ele>388.5</ele>
        <time>2017-02-15T15:00:06Z</time>
      </trkpt>
      <trkpt lat="43.5489" lon="6.02505">
        <ele>389.2</ele>
        <time>2017-02-15T15:00:14Z</time>
      </trkpt>
      <trkpt lat="43.54881" lon="6.02511">
        <ele>389.9</ele>
        <time>2017-02-15T15:00:24Z</time>
      </trkpt>
      <trkpt lat="43.54873" lon="6.02517">
        <ele>390.3</ele>
        <time>2017-02-15T15:00:33Z</time>
      </trkpt>
      <trkpt lat="43.54864" lon="6.02521">
        <ele>390.8</ele>
        <time>2017-02-15T15:00:41Z</time>
      </trkpt>
      <trkpt lat="43.54856" lon="6.02527">
        <ele>390.9</ele>
        <time>2017-02-15T15:00:49Z</time>
      </trkpt>
      <trkpt lat="43.54848" lon="6.02535">
        <ele>391.6</ele>
        <time>2017-02-15T15:00:58Z</time>
      </trkpt>
      <trkpt lat="43.54841" lon="6.02543">
        <ele>392.2</ele>
        <time>2017-02-15T15:01:06Z</time>
      </trkpt>
      <trkpt lat="43.54834" lon="6.02551">
        <ele>392.9</ele>
        <time>2017-02-15T15:01:15Z</time>
      </trkpt>
      <trkpt lat="43.54827" lon="6.0256">
        <ele>393.5</ele>
        <time>2017-02-15T15:01:24Z</time>
      </trkpt>
      <trkpt lat="43.54821" lon="6.0257">
        <ele>394.3</ele>
        <time>2017-02-15T15:01:34Z</time>
      </trkpt>
      <trkpt lat="43.54817" lon="6.02581">
        <ele>395.5</ele>
        <time>2017-02-15T15:02:55Z</time>
      </trkpt>
      <trkpt lat="43.54822" lon="6.02593">
        <ele>395.2</ele>
        <time>2017-02-15T15:06:05Z</time>
      </trkpt>
      <trkpt lat="43.54829" lon="6.026">
        <ele>395.2</ele>
        <time>2017-02-15T15:06:15Z</time>
      </trkpt>
      <trkpt lat="43.54837" lon="6.02608">
        <ele>395.3</ele>
        <time>2017-02-15T15:06:25Z</time>
      </trkpt>
      <trkpt lat="43.54845" lon="6.02615">
        <ele>395.1</ele>
        <time>2017-02-15T15:06:35Z</time>
      </trkpt>
      <trkpt lat="43.54853" lon="6.02623">
        <ele>394.9</ele>
        <time>2017-02-15T15:06:45Z</time>
      </trkpt>
      <trkpt lat="43.54861" lon="6.02631">
        <ele>394.7</ele>
        <time>2017-02-15T15:06:55Z</time>
      </trkpt>
      <trkpt lat="43.54869" lon="6.02637">
        <ele>394.3</ele>
        <time>2017-02-15T15:07:03Z</time>
      </trkpt>
      <trkpt lat="43.54877" lon="6.02646">
        <ele>393.8</ele>
        <time>2017-02-15T15:07:11Z</time>
      </trkpt>
      <trkpt lat="43.54885" lon="6.02653">
        <ele>392.4</ele>
        <time>2017-02-15T15:07:19Z</time>
      </trkpt>
      <trkpt lat="43.54893" lon="6.02659">
        <ele>391.7</ele>
        <time>2017-02-15T15:07:26Z</time>
      </trkpt>
      <trkpt lat="43.54902" lon="6.02663">
        <ele>391.2</ele>
        <time>2017-02-15T15:07:35Z</time>
      </trkpt>
      <trkpt lat="43.54911" lon="6.02667">
        <ele>391</ele>
        <time>2017-02-15T15:07:42Z</time>
      </trkpt>
      <trkpt lat="43.5492" lon="6.02671">
        <ele>390.5</ele>
        <time>2017-02-15T15:07:49Z</time>
      </trkpt>
      <trkpt lat="43.5493" lon="6.02674">
        <ele>390.4</ele>
        <time>2017-02-15T15:07:57Z</time>
      </trkpt>
      <trkpt lat="43.54939" lon="6.02677">
        <ele>390.4</ele>
        <time>2017-02-15T15:08:05Z</time>
      </trkpt>
      <trkpt lat="43.54947" lon="6.02683">
        <ele>390.8</ele>
        <time>2017-02-15T15:08:13Z</time>
      </trkpt>
      <trkpt lat="43.54955" lon="6.02689">
        <ele>391.1</ele>
        <time>2017-02-15T15:08:21Z</time>
      </trkpt>
      <trkpt lat="43.54964" lon="6.02696">
        <ele>391.5</ele>
        <time>2017-02-15T15:08:29Z</time>
      </trkpt>
      <trkpt lat="43.54972" lon="6.02702">
        <ele>391.7</ele>
        <time>2017-02-15T15:08:36Z</time>
      </trkpt>
      <trkpt lat="43.54981" lon="6.02709">
        <ele>391.8</ele>
        <time>2017-02-15T15:08:44Z</time>
      </trkpt>
      <trkpt lat="43.5499" lon="6.02713">
        <ele>392</ele>
        <time>2017-02-15T15:08:52Z</time>
      </trkpt>
      <trkpt lat="43.54998" lon="6.02718">
        <ele>392.1</ele>
        <time>2017-02-15T15:09:00Z</time>
      </trkpt>
      <trkpt lat="43.55008" lon="6.02723">
        <ele>392.2</ele>
        <time>2017-02-15T15:09:08Z</time>
      </trkpt>
      <trkpt lat="43.55017" lon="6.02726">
        <ele>391.8</ele>
        <time>2017-02-15T15:09:17Z</time>
      </trkpt>
      <trkpt lat="43.55026" lon="6.02731">
        <ele>391.4</ele>
        <time>2017-02-15T15:09:25Z</time>
      </trkpt>
      <trkpt lat="43.55035" lon="6.02735">
        <ele>390.6</ele>
        <time>2017-02-15T15:09:33Z</time>
      </trkpt>
      <trkpt lat="43.55044" lon="6.02739">
        <ele>389.9</ele>
        <time>2017-02-15T15:09:41Z</time>
      </trkpt>
      <trkpt lat="43.55053" lon="6.0274">
        <ele>389.3</ele>
        <time>2017-02-15T15:09:49Z</time>
      </trkpt>
      <trkpt lat="43.55062" lon="6.02743">
        <ele>388.6</ele>
        <time>2017-02-15T15:09:57Z</time>
      </trkpt>
      <trkpt lat="43.55071" lon="6.02746">
        <ele>388.2</ele>
        <time>2017-02-15T15:10:04Z</time>
      </trkpt>
      <trkpt lat="43.55081" lon="6.02749">
        <ele>387.8</ele>
        <time>2017-02-15T15:10:12Z</time>
      </trkpt>
      <trkpt lat="43.5509" lon="6.02751">
        <ele>387.1</ele>
        <time>2017-02-15T15:10:20Z</time>
      </trkpt>
      <trkpt lat="43.55099" lon="6.02752">
        <ele>386.8</ele>
        <time>2017-02-15T15:10:28Z</time>
      </trkpt>
      <trkpt lat="43.55109" lon="6.02752">
        <ele>386.6</ele>
        <time>2017-02-15T15:10:36Z</time>
      </trkpt>
      <trkpt lat="43.55119" lon="6.02751">
        <ele>386.4</ele>
        <time>2017-02-15T15:10:45Z</time>
      </trkpt>
      <trkpt lat="43.55129" lon="6.02749">
        <ele>386.3</ele>
        <time>2017-02-15T15:10:53Z</time>
      </trkpt>
      <trkpt lat="43.55139" lon="6.02747">
        <ele>386.1</ele>
        <time>2017-02-15T15:11:01Z</time>
      </trkpt>
      <trkpt lat="43.55149" lon="6.02746">
        <ele>386.1</ele>
        <time>2017-02-15T15:11:09Z</time>
      </trkpt>
      <trkpt lat="43.55158" lon="6.02747">
        <ele>385.8</ele>
        <time>2017-02-15T15:11:17Z</time>
      </trkpt>
      <trkpt lat="43.55167" lon="6.02749">
        <ele>385.7</ele>
        <time>2017-02-15T15:11:25Z</time>
      </trkpt>
      <trkpt lat="43.55177" lon="6.0275">
        <ele>385.7</ele>
        <time>2017-02-15T15:11:33Z</time>
      </trkpt>
      <trkpt lat="43.55187" lon="6.0275">
        <ele>385.2</ele>
        <time>2017-02-15T15:11:41Z</time>
      </trkpt>
      <trkpt lat="43.55196" lon="6.02753">
        <ele>384.1</ele>
        <time>2017-02-15T15:11:53Z</time>
      </trkpt>
      <trkpt lat="43.55203" lon="6.02762">
        <ele>382.7</ele>
        <time>2017-02-15T15:12:03Z</time>
      </trkpt>
      <trkpt lat="43.55207" lon="6.02773">
        <ele>381.8</ele>
        <time>2017-02-15T15:12:12Z</time>
      </trkpt>
      <trkpt lat="43.55211" lon="6.02785">
        <ele>380.4</ele>
        <time>2017-02-15T15:12:21Z</time>
      </trkpt>
      <trkpt lat="43.55215" lon="6.02798">
        <ele>379.1</ele>
        <time>2017-02-15T15:12:30Z</time>
      </trkpt>
      <trkpt lat="43.5522" lon="6.0281">
        <ele>378.9</ele>
        <time>2017-02-15T15:12:38Z</time>
      </trkpt>
      <trkpt lat="43.55227" lon="6.02819">
        <ele>378.5</ele>
        <time>2017-02-15T15:12:46Z</time>
      </trkpt>
      <trkpt lat="43.55235" lon="6.02827">
        <ele>378.8</ele>
        <time>2017-02-15T15:12:54Z</time>
      </trkpt>
      <trkpt lat="43.55241" lon="6.02837">
        <ele>379.1</ele>
        <time>2017-02-15T15:13:02Z</time>
      </trkpt>
      <trkpt lat="43.55246" lon="6.02849">
        <ele>379.8</ele>
        <time>2017-02-15T15:13:11Z</time>
      </trkpt>
      <trkpt lat="43.5525" lon="6.0286">
        <ele>380.8</ele>
        <time>2017-02-15T15:13:20Z</time>
      </trkpt>
      <trkpt lat="43.55254" lon="6.02872">
        <ele>382</ele>
        <time>2017-02-15T15:13:31Z</time>
      </trkpt>
      <trkpt lat="43.55258" lon="6.02883">
        <ele>383.9</ele>
        <time>2017-02-15T15:13:42Z</time>
      </trkpt>
      <trkpt lat="43.55263" lon="6.02895">
        <ele>385.1</ele>
        <time>2017-02-15T15:13:52Z</time>
      </trkpt>
      <trkpt lat="43.55267" lon="6.02906">
        <ele>386.3</ele>
        <time>2017-02-15T15:14:00Z</time>
      </trkpt>
      <trkpt lat="43.55273" lon="6.02917">
        <ele>387.3</ele>
        <time>2017-02-15T15:14:09Z</time>
      </trkpt>
      <trkpt lat="43.55278" lon="6.02929">
        <ele>388.8</ele>
        <time>2017-02-15T15:14:19Z</time>
      </trkpt>
      <trkpt lat="43.55282" lon="6.02941">
        <ele>390.2</ele>
        <time>2017-02-15T15:14:30Z</time>
      </trkpt>
      <trkpt lat="43.55286" lon="6.02952">
        <ele>391.8</ele>
        <time>2017-02-15T15:14:40Z</time>
      </trkpt>
      <trkpt lat="43.55291" lon="6.02963">
        <ele>393.1</ele>
        <time>2017-02-15T15:14:50Z</time>
      </trkpt>
      <trkpt lat="43.55295" lon="6.02974">
        <ele>394.4</ele>
        <time>2017-02-15T15:15:00Z</time>
      </trkpt>
      <trkpt lat="43.55299" lon="6.02986">
        <ele>395.5</ele>
        <time>2017-02-15T15:15:10Z</time>
      </trkpt>
      <trkpt lat="43.55301" lon="6.02999">
        <ele>396.8</ele>
        <time>2017-02-15T15:15:20Z</time>
      </trkpt>
      <trkpt lat="43.55302" lon="6.03011">
        <ele>398.3</ele>
        <time>2017-02-15T15:15:30Z</time>
      </trkpt>
      <trkpt lat="43.55303" lon="6.03024">
        <ele>399.5</ele>
        <time>2017-02-15T15:15:40Z</time>
      </trkpt>
      <trkpt lat="43.55304" lon="6.03037">
        <ele>400.9</ele>
        <time>2017-02-15T15:15:53Z</time>
      </trkpt>
      <trkpt lat="43.55305" lon="6.0305">
        <ele>403</ele>
        <time>2017-02-15T15:16:07Z</time>
      </trkpt>
      <trkpt lat="43.55311" lon="6.0306">
        <ele>405.4</ele>
        <time>2017-02-15T15:16:53Z</time>
      </trkpt>
      <trkpt lat="43.55302" lon="6.03062">
        <ele>405.6</ele>
        <time>2017-02-15T15:17:10Z</time>
      </trkpt>
      <trkpt lat="43.55292" lon="6.03059">
        <ele>405.7</ele>
        <time>2017-02-15T15:17:19Z</time>
      </trkpt>
      <trkpt lat="43.55283" lon="6.03059">
        <ele>406.2</ele>
        <time>2017-02-15T15:17:30Z</time>
      </trkpt>
      <trkpt lat="43.55274" lon="6.03058">
        <ele>406.7</ele>
        <time>2017-02-15T15:17:38Z</time>
      </trkpt>
      <trkpt lat="43.55264" lon="6.03057">
        <ele>406.5</ele>
        <time>2017-02-15T15:17:47Z</time>
      </trkpt>
      <trkpt lat="43.55255" lon="6.03056">
        <ele>406.3</ele>
        <time>2017-02-15T15:17:55Z</time>
      </trkpt>
      <trkpt lat="43.55245" lon="6.03059">
        <ele>405.9</ele>
        <time>2017-02-15T15:18:04Z</time>
      </trkpt>
      <trkpt lat="43.55236" lon="6.0306">
        <ele>405.4</ele>
        <time>2017-02-15T15:18:14Z</time>
      </trkpt>
      <trkpt lat="43.55227" lon="6.03065">
        <ele>405.4</ele>
        <time>2017-02-15T15:18:27Z</time>
      </trkpt>
      <trkpt lat="43.55218" lon="6.03071">
        <ele>405.2</ele>
        <time>2017-02-15T15:18:36Z</time>
      </trkpt>
      <trkpt lat="43.5521" lon="6.03076">
        <ele>404.7</ele>
        <time>2017-02-15T15:18:44Z</time>
      </trkpt>
      <trkpt lat="43.55202" lon="6.03083">
        <ele>404.5</ele>
        <time>2017-02-15T15:18:53Z</time>
      </trkpt>
      <trkpt lat="43.55193" lon="6.03089">
        <ele>404.1</ele>
        <time>2017-02-15T15:19:03Z</time>
      </trkpt>
      <trkpt lat="43.55184" lon="6.03093">
        <ele>403.1</ele>
        <time>2017-02-15T15:19:12Z</time>
      </trkpt>
      <trkpt lat="43.55175" lon="6.03096">
        <ele>402.3</ele>
        <time>2017-02-15T15:19:20Z</time>
      </trkpt>
      <trkpt lat="43.55167" lon="6.03102">
        <ele>401.1</ele>
        <time>2017-02-15T15:19:30Z</time>
      </trkpt>
      <trkpt lat="43.55159" lon="6.03108">
        <ele>399.8</ele>
        <time>2017-02-15T15:19:37Z</time>
      </trkpt>
      <trkpt lat="43.5515" lon="6.03115">
        <ele>398.6</ele>
        <time>2017-02-15T15:19:45Z</time>
      </trkpt>
      <trkpt lat="43.55142" lon="6.03123">
        <ele>397.3</ele>
        <time>2017-02-15T15:19:54Z</time>
      </trkpt>
      <trkpt lat="43.55135" lon="6.03132">
        <ele>396.2</ele>
        <time>2017-02-15T15:20:05Z</time>
      </trkpt>
      <trkpt lat="43.55132" lon="6.03144">
        <ele>396</ele>
        <time>2017-02-15T15:20:14Z</time>
      </trkpt>
      <trkpt lat="43.55129" lon="6.03156">
        <ele>396.4</ele>
        <time>2017-02-15T15:20:23Z</time>
      </trkpt>
      <trkpt lat="43.55124" lon="6.03167">
        <ele>396.5</ele>
        <time>2017-02-15T15:20:32Z</time>
      </trkpt>
      <trkpt lat="43.5512" lon="6.0318">
        <ele>396.8</ele>
        <time>2017-02-15T15:20:41Z</time>
      </trkpt>
      <trkpt lat="43.55115" lon="6.03189">
        <ele>396.8</ele>
        <time>2017-02-15T15:20:49Z</time>
      </trkpt>
      <trkpt lat="43.55108" lon="6.03199">
        <ele>396.8</ele>
        <time>2017-02-15T15:20:58Z</time>
      </trkpt>
      <trkpt lat="43.55101" lon="6.03209">
        <ele>396</ele>
        <time>2017-02-15T15:21:08Z</time>
      </trkpt>
      <trkpt lat="43.55093" lon="6.03217">
        <ele>395.9</ele>
        <time>2017-02-15T15:21:17Z</time>
      </trkpt>
      <trkpt lat="43.55087" lon="6.03228">
        <ele>395.9</ele>
        <time>2017-02-15T15:21:25Z</time>
      </trkpt>
      <trkpt lat="43.55084" lon="6.0324">
        <ele>396.1</ele>
        <time>2017-02-15T15:21:33Z</time>
      </trkpt>
      <trkpt lat="43.5508" lon="6.03251">
        <ele>396.3</ele>
        <time>2017-02-15T15:21:42Z</time>
      </trkpt>
      <trkpt lat="43.55077" lon="6.03263">
        <ele>396.5</ele>
        <time>2017-02-15T15:21:57Z</time>
      </trkpt>
      <trkpt lat="43.55074" lon="6.03276">
        <ele>396.8</ele>
        <time>2017-02-15T15:22:08Z</time>
      </trkpt>
      <trkpt lat="43.55066" lon="6.0328">
        <ele>397.4</ele>
        <time>2017-02-15T15:22:21Z</time>
      </trkpt>
      <trkpt lat="43.55056" lon="6.03281">
        <ele>399.2</ele>
        <time>2017-02-15T15:22:41Z</time>
      </trkpt>
      <trkpt lat="43.55048" lon="6.03288">
        <ele>401.5</ele>
        <time>2017-02-15T15:22:59Z</time>
      </trkpt>
      <trkpt lat="43.55041" lon="6.03296">
        <ele>403.8</ele>
        <time>2017-02-15T15:23:15Z</time>
      </trkpt>
      <trkpt lat="43.55035" lon="6.03306">
        <ele>406.3</ele>
        <time>2017-02-15T15:23:34Z</time>
      </trkpt>
      <trkpt lat="43.55027" lon="6.03313">
        <ele>408.7</ele>
        <time>2017-02-15T15:23:49Z</time>
      </trkpt>
      <trkpt lat="43.5502" lon="6.03321">
        <ele>410.4</ele>
        <time>2017-02-15T15:24:01Z</time>
      </trkpt>
      <trkpt lat="43.55012" lon="6.03328">
        <ele>412.3</ele>
        <time>2017-02-15T15:24:13Z</time>
      </trkpt>
      <trkpt lat="43.55004" lon="6.03335">
        <ele>413.4</ele>
        <time>2017-02-15T15:24:24Z</time>
      </trkpt>
      <trkpt lat="43.54996" lon="6.03342">
        <ele>414</ele>
        <time>2017-02-15T15:24:33Z</time>
      </trkpt>
      <trkpt lat="43.54987" lon="6.03345">
        <ele>414.2</ele>
        <time>2017-02-15T15:24:42Z</time>
      </trkpt>
      <trkpt lat="43.54978" lon="6.03349">
        <ele>414</ele>
        <time>2017-02-15T15:24:51Z</time>
      </trkpt>
      <trkpt lat="43.54971" lon="6.03356">
        <ele>413.6</ele>
        <time>2017-02-15T15:24:59Z</time>
      </trkpt>
      <trkpt lat="43.54967" lon="6.03369">
        <ele>413.7</ele>
        <time>2017-02-15T15:25:09Z</time>
      </trkpt>
      <trkpt lat="43.54967" lon="6.03382">
        <ele>413.9</ele>
        <time>2017-02-15T15:25:18Z</time>
      </trkpt>
      <trkpt lat="43.54968" lon="6.03395">
        <ele>414.7</ele>
        <time>2017-02-15T15:25:28Z</time>
      </trkpt>
      <trkpt lat="43.54969" lon="6.03408">
        <ele>415.8</ele>
        <time>2017-02-15T15:25:40Z</time>
      </trkpt>
      <trkpt lat="43.54968" lon="6.03422">
        <ele>417.7</ele>
        <time>2017-02-15T15:25:54Z</time>
      </trkpt>
      <trkpt lat="43.54969" lon="6.03435">
        <ele>420.1</ele>
        <time>2017-02-15T15:26:09Z</time>
      </trkpt>
      <trkpt lat="43.5497" lon="6.03447">
        <ele>421.5</ele>
        <time>2017-02-15T15:26:20Z</time>
      </trkpt>
      <trkpt lat="43.5497" lon="6.0346">
        <ele>422.8</ele>
        <time>2017-02-15T15:26:30Z</time>
      </trkpt>
      <trkpt lat="43.54973" lon="6.03473">
        <ele>424.5</ele>
        <time>2017-02-15T15:26:40Z</time>
      </trkpt>
      <trkpt lat="43.54976" lon="6.03486">
        <ele>426.3</ele>
        <time>2017-02-15T15:26:53Z</time>
      </trkpt>
      <trkpt lat="43.54978" lon="6.03498">
        <ele>427.6</ele>
        <time>2017-02-15T15:27:04Z</time>
      </trkpt>
      <trkpt lat="43.54978" lon="6.03511">
        <ele>429.5</ele>
        <time>2017-02-15T15:27:15Z</time>
      </trkpt>
      <trkpt lat="43.54979" lon="6.03525">
        <ele>430.9</ele>
        <time>2017-02-15T15:27:25Z</time>
      </trkpt>
      <trkpt lat="43.5498" lon="6.03537">
        <ele>432.4</ele>
        <time>2017-02-15T15:27:35Z</time>
      </trkpt>
      <trkpt lat="43.54982" lon="6.03551">
        <ele>433.5</ele>
        <time>2017-02-15T15:27:45Z</time>
      </trkpt>
      <trkpt lat="43.54982" lon="6.03564">
        <ele>434.4</ele>
        <time>2017-02-15T15:27:55Z</time>
      </trkpt>
      <trkpt lat="43.54981" lon="6.03577">
        <ele>435.2</ele>
        <time>2017-02-15T15:28:05Z</time>
      </trkpt>
      <trkpt lat="43.5498" lon="6.03591">
        <ele>436.1</ele>
        <time>2017-02-15T15:28:16Z</time>
      </trkpt>
      <trkpt lat="43.54979" lon="6.03604">
        <ele>436.9</ele>
        <time>2017-02-15T15:28:26Z</time>
      </trkpt>
      <trkpt lat="43.54977" lon="6.03618">
        <ele>437.5</ele>
        <time>2017-02-15T15:28:36Z</time>
      </trkpt>
      <trkpt lat="43.54976" lon="6.03631">
        <ele>437.9</ele>
        <time>2017-02-15T15:28:44Z</time>
      </trkpt>
      <trkpt lat="43.54974" lon="6.03644">
        <ele>438.3</ele>
        <time>2017-02-15T15:28:52Z</time>
      </trkpt>
      <trkpt lat="43.54972" lon="6.03656">
        <ele>439.2</ele>
        <time>2017-02-15T15:29:01Z</time>
      </trkpt>
      <trkpt lat="43.54969" lon="6.03668">
        <ele>440.3</ele>
        <time>2017-02-15T15:29:11Z</time>
      </trkpt>
      <trkpt lat="43.54966" lon="6.0368">
        <ele>441.4</ele>
        <time>2017-02-15T15:29:20Z</time>
      </trkpt>
      <trkpt lat="43.54965" lon="6.03694">
        <ele>442.2</ele>
        <time>2017-02-15T15:29:29Z</time>
      </trkpt>
      <trkpt lat="43.54963" lon="6.03707">
        <ele>443.1</ele>
        <time>2017-02-15T15:29:38Z</time>
      </trkpt>
      <trkpt lat="43.54959" lon="6.03719">
        <ele>444.1</ele>
        <time>2017-02-15T15:29:47Z</time>
      </trkpt>
      <trkpt lat="43.54956" lon="6.03731">
        <ele>444.5</ele>
        <time>2017-02-15T15:29:56Z</time>
      </trkpt>
      <trkpt lat="43.54951" lon="6.03742">
        <ele>445</ele>
        <time>2017-02-15T15:30:05Z</time>
      </trkpt>
      <trkpt lat="43.54948" lon="6.03754">
        <ele>445.2</ele>
        <time>2017-02-15T15:30:13Z</time>
      </trkpt>
      <trkpt lat="43.54945" lon="6.03767">
        <ele>445.3</ele>
        <time>2017-02-15T15:30:22Z</time>
      </trkpt>
      <trkpt lat="43.54941" lon="6.03779">
        <ele>445.2</ele>
        <time>2017-02-15T15:30:31Z</time>
      </trkpt>
      <trkpt lat="43.54937" lon="6.03791">
        <ele>445</ele>
        <time>2017-02-15T15:30:40Z</time>
      </trkpt>
      <trkpt lat="43.54934" lon="6.03804">
        <ele>444.9</ele>
        <time>2017-02-15T15:30:49Z</time>
      </trkpt>
      <trkpt lat="43.5493" lon="6.03816">
        <ele>445.2</ele>
        <time>2017-02-15T15:30:59Z</time>
      </trkpt>
      <trkpt lat="43.54927" lon="6.03828">
        <ele>445.5</ele>
        <time>2017-02-15T15:31:07Z</time>
      </trkpt>
      <trkpt lat="43.54924" lon="6.0384">
        <ele>445.8</ele>
        <time>2017-02-15T15:31:16Z</time>
      </trkpt>
      <trkpt lat="43.54921" lon="6.03852">
        <ele>446.4</ele>
        <time>2017-02-15T15:31:25Z</time>
      </trkpt>
      <trkpt lat="43.54918" lon="6.03865">
        <ele>447.3</ele>
        <time>2017-02-15T15:31:35Z</time>
      </trkpt>
      <trkpt lat="43.54915" lon="6.03876">
        <ele>448</ele>
        <time>2017-02-15T15:31:46Z</time>
      </trkpt>
      <trkpt lat="43.54912" lon="6.03889">
        <ele>448.5</ele>
        <time>2017-02-15T15:31:57Z</time>
      </trkpt>
      <trkpt lat="43.54909" lon="6.03901">
        <ele>449</ele>
        <time>2017-02-15T15:32:08Z</time>
      </trkpt>
      <trkpt lat="43.54907" lon="6.03914">
        <ele>449.4</ele>
        <time>2017-02-15T15:32:17Z</time>
      </trkpt>
      <trkpt lat="43.54904" lon="6.03927">
        <ele>449.8</ele>
        <time>2017-02-15T15:32:27Z</time>
      </trkpt>
      <trkpt lat="43.54899" lon="6.03938">
        <ele>450.4</ele>
        <time>2017-02-15T15:32:37Z</time>
      </trkpt>
      <trkpt lat="43.54893" lon="6.03949">
        <ele>451.3</ele>
        <time>2017-02-15T15:32:47Z</time>
      </trkpt>
      <trkpt lat="43.54888" lon="6.03961">
        <ele>452.2</ele>
        <time>2017-02-15T15:32:58Z</time>
      </trkpt>
      <trkpt lat="43.54884" lon="6.03972">
        <ele>453.4</ele>
        <time>2017-02-15T15:33:08Z</time>
      </trkpt>
      <trkpt lat="43.5488" lon="6.03984">
        <ele>454.8</ele>
        <time>2017-02-15T15:33:20Z</time>
      </trkpt>
      <trkpt lat="43.54877" lon="6.03996">
        <ele>455.7</ele>
        <time>2017-02-15T15:33:31Z</time>
      </trkpt>
      <trkpt lat="43.54873" lon="6.04009">
        <ele>457.1</ele>
        <time>2017-02-15T15:33:42Z</time>
      </trkpt>
      <trkpt lat="43.54869" lon="6.0402">
        <ele>458.4</ele>
        <time>2017-02-15T15:33:53Z</time>
      </trkpt>
      <trkpt lat="43.54864" lon="6.0403">
        <ele>459.6</ele>
        <time>2017-02-15T15:34:04Z</time>
      </trkpt>
      <trkpt lat="43.54859" lon="6.04041">
        <ele>460.6</ele>
        <time>2017-02-15T15:34:14Z</time>
      </trkpt>
      <trkpt lat="43.54854" lon="6.04053">
        <ele>462</ele>
        <time>2017-02-15T15:34:25Z</time>
      </trkpt>
      <trkpt lat="43.54849" lon="6.04063">
        <ele>463.3</ele>
        <time>2017-02-15T15:34:35Z</time>
      </trkpt>
      <trkpt lat="43.54845" lon="6.04076">
        <ele>464.4</ele>
        <time>2017-02-15T15:34:46Z</time>
      </trkpt>
      <trkpt lat="43.5484" lon="6.04086">
        <ele>465.9</ele>
        <time>2017-02-15T15:34:58Z</time>
      </trkpt>
      <trkpt lat="43.54835" lon="6.04098">
        <ele>466.6</ele>
        <time>2017-02-15T15:35:08Z</time>
      </trkpt>
      <trkpt lat="43.5483" lon="6.04109">
        <ele>467.6</ele>
        <time>2017-02-15T15:35:18Z</time>
      </trkpt>
      <trkpt lat="43.54824" lon="6.04119">
        <ele>468.7</ele>
        <time>2017-02-15T15:35:29Z</time>
      </trkpt>
      <trkpt lat="43.54818" lon="6.04127">
        <ele>469.9</ele>
        <time>2017-02-15T15:35:41Z</time>
      </trkpt>
      <trkpt lat="43.54809" lon="6.04133">
        <ele>471.3</ele>
        <time>2017-02-15T15:35:54Z</time>
      </trkpt>
      <trkpt lat="43.54802" lon="6.04142">
        <ele>472.6</ele>
        <time>2017-02-15T15:36:05Z</time>
      </trkpt>
      <trkpt lat="43.54794" lon="6.0415">
        <ele>473.8</ele>
        <time>2017-02-15T15:36:18Z</time>
      </trkpt>
      <trkpt lat="43.54787" lon="6.04159">
        <ele>475.6</ele>
        <time>2017-02-15T15:36:30Z</time>
      </trkpt>
      <trkpt lat="43.5478" lon="6.04167">
        <ele>477.7</ele>
        <time>2017-02-15T15:36:43Z</time>
      </trkpt>
      <trkpt lat="43.54773" lon="6.04174">
        <ele>480</ele>
        <time>2017-02-15T15:36:56Z</time>
      </trkpt>
      <trkpt lat="43.54767" lon="6.04185">
        <ele>481.7</ele>
        <time>2017-02-15T15:37:07Z</time>
      </trkpt>
      <trkpt lat="43.54761" lon="6.04194">
        <ele>483.2</ele>
        <time>2017-02-15T15:37:18Z</time>
      </trkpt>
      <trkpt lat="43.54755" lon="6.04204">
        <ele>484.9</ele>
        <time>2017-02-15T15:39:20Z</time>
      </trkpt>
      <trkpt lat="43.54749" lon="6.04213">
        <ele>485.6</ele>
        <time>2017-02-15T15:39:34Z</time>
      </trkpt>
      <trkpt lat="43.54742" lon="6.04221">
        <ele>486.6</ele>
        <time>2017-02-15T15:40:06Z</time>
      </trkpt>
      <trkpt lat="43.54733" lon="6.04227">
        <ele>487.4</ele>
        <time>2017-02-15T15:40:20Z</time>
      </trkpt>
      <trkpt lat="43.54725" lon="6.04231">
        <ele>488.7</ele>
        <time>2017-02-15T15:40:33Z</time>
      </trkpt>
      <trkpt lat="43.54717" lon="6.04238">
        <ele>490.9</ele>
        <time>2017-02-15T15:40:48Z</time>
      </trkpt>
      <trkpt lat="43.54707" lon="6.04239">
        <ele>493.1</ele>
        <time>2017-02-15T15:41:03Z</time>
      </trkpt>
      <trkpt lat="43.547" lon="6.04246">
        <ele>495.9</ele>
        <time>2017-02-15T15:41:25Z</time>
      </trkpt>
      <trkpt lat="43.54691" lon="6.04251">
        <ele>497.6</ele>
        <time>2017-02-15T15:41:38Z</time>
      </trkpt>
      <trkpt lat="43.54683" lon="6.04259">
        <ele>500.5</ele>
        <time>2017-02-15T15:42:13Z</time>
      </trkpt>
      <trkpt lat="43.54676" lon="6.04266">
        <ele>502.2</ele>
        <time>2017-02-15T15:42:31Z</time>
      </trkpt>
      <trkpt lat="43.54668" lon="6.04271">
        <ele>504.4</ele>
        <time>2017-02-15T15:42:48Z</time>
      </trkpt>
      <trkpt lat="43.5466" lon="6.04278">
        <ele>506.6</ele>
        <time>2017-02-15T15:43:03Z</time>
      </trkpt>
      <trkpt lat="43.54651" lon="6.0428">
        <ele>508.9</ele>
        <time>2017-02-15T15:43:20Z</time>
      </trkpt>
      <trkpt lat="43.54647" lon="6.04268">
        <ele>510.1</ele>
        <time>2017-02-15T15:43:48Z</time>
      </trkpt>
      <trkpt lat="43.54645" lon="6.04255">
        <ele>510.1</ele>
        <time>2017-02-15T15:43:58Z</time>
      </trkpt>
      <trkpt lat="43.54645" lon="6.04242">
        <ele>510.1</ele>
        <time>2017-02-15T15:44:07Z</time>
      </trkpt>
      <trkpt lat="43.54644" lon="6.04229">
        <ele>509.9</ele>
        <time>2017-02-15T15:44:16Z</time>
      </trkpt>
      <trkpt lat="43.54641" lon="6.04217">
        <ele>509.2</ele>
        <time>2017-02-15T15:44:25Z</time>
      </trkpt>
      <trkpt lat="43.54637" lon="6.04206">
        <ele>508.1</ele>
        <time>2017-02-15T15:44:34Z</time>
      </trkpt>
      <trkpt lat="43.54637" lon="6.04193">
        <ele>507.4</ele>
        <time>2017-02-15T15:44:43Z</time>
      </trkpt>
      <trkpt lat="43.54639" lon="6.0418">
        <ele>506.8</ele>
        <time>2017-02-15T15:44:52Z</time>
      </trkpt>
      <trkpt lat="43.54638" lon="6.04167">
        <ele>505.8</ele>
        <time>2017-02-15T15:45:01Z</time>
      </trkpt>
      <trkpt lat="43.54638" lon="6.04154">
        <ele>504.3</ele>
        <time>2017-02-15T15:45:12Z</time>
      </trkpt>
      <trkpt lat="43.54638" lon="6.04142">
        <ele>501.8</ele>
        <time>2017-02-15T15:45:34Z</time>
      </trkpt>
      <trkpt lat="43.54634" lon="6.0413">
        <ele>500.4</ele>
        <time>2017-02-15T15:45:44Z</time>
      </trkpt>
      <trkpt lat="43.54636" lon="6.04117">
        <ele>499.1</ele>
        <time>2017-02-15T15:45:53Z</time>
      </trkpt>
      <trkpt lat="43.54639" lon="6.04106">
        <ele>498.5</ele>
        <time>2017-02-15T15:46:01Z</time>
      </trkpt>
      <trkpt lat="43.54641" lon="6.04093">
        <ele>498.1</ele>
        <time>2017-02-15T15:46:10Z</time>
      </trkpt>
      <trkpt lat="43.54638" lon="6.0408">
        <ele>498.4</ele>
        <time>2017-02-15T15:46:20Z</time>
      </trkpt>
      <trkpt lat="43.54638" lon="6.04067">
        <ele>499.2</ele>
        <time>2017-02-15T15:46:29Z</time>
      </trkpt>
      <trkpt lat="43.5464" lon="6.04054">
        <ele>499.7</ele>
        <time>2017-02-15T15:46:38Z</time>
      </trkpt>
      <trkpt lat="43.5464" lon="6.04042">
        <ele>498.8</ele>
        <time>2017-02-15T15:46:49Z</time>
      </trkpt>
      <trkpt lat="43.5464" lon="6.04029">
        <ele>497</ele>
        <time>2017-02-15T15:47:01Z</time>
      </trkpt>
      <trkpt lat="43.5464" lon="6.04016">
        <ele>495.4</ele>
        <time>2017-02-15T15:47:11Z</time>
      </trkpt>
      <trkpt lat="43.54638" lon="6.04003">
        <ele>494.3</ele>
        <time>2017-02-15T15:47:20Z</time>
      </trkpt>
      <trkpt lat="43.54637" lon="6.0399">
        <ele>493.4</ele>
        <time>2017-02-15T15:47:28Z</time>
      </trkpt>
      <trkpt lat="43.54636" lon="6.03977">
        <ele>492.7</ele>
        <time>2017-02-15T15:47:38Z</time>
      </trkpt>
      <trkpt lat="43.54634" lon="6.03964">
        <ele>492.2</ele>
        <time>2017-02-15T15:47:45Z</time>
      </trkpt>
      <trkpt lat="43.54632" lon="6.03951">
        <ele>492.4</ele>
        <time>2017-02-15T15:47:53Z</time>
      </trkpt>
      <trkpt lat="43.54628" lon="6.03939">
        <ele>492.4</ele>
        <time>2017-02-15T15:48:02Z</time>
      </trkpt>
      <trkpt lat="43.54627" lon="6.03926">
        <ele>492.5</ele>
        <time>2017-02-15T15:48:21Z</time>
      </trkpt>
      <trkpt lat="43.54625" lon="6.03912">
        <ele>491.7</ele>
        <time>2017-02-15T15:48:31Z</time>
      </trkpt>
      <trkpt lat="43.54624" lon="6.03899">
        <ele>489.8</ele>
        <time>2017-02-15T15:48:41Z</time>
      </trkpt>
      <trkpt lat="43.54625" lon="6.03885">
        <ele>487.9</ele>
        <time>2017-02-15T15:48:53Z</time>
      </trkpt>
      <trkpt lat="43.54625" lon="6.03872">
        <ele>486.7</ele>
        <time>2017-02-15T15:49:03Z</time>
      </trkpt>
      <trkpt lat="43.54622" lon="6.0386">
        <ele>485.4</ele>
        <time>2017-02-15T15:49:13Z</time>
      </trkpt>
      <trkpt lat="43.54614" lon="6.03854">
        <ele>485</ele>
        <time>2017-02-15T15:49:21Z</time>
      </trkpt>
      <trkpt lat="43.54608" lon="6.03845">
        <ele>485.1</ele>
        <time>2017-02-15T15:49:31Z</time>
      </trkpt>
      <trkpt lat="43.54606" lon="6.03833">
        <ele>483.4</ele>
        <time>2017-02-15T15:49:43Z</time>
      </trkpt>
      <trkpt lat="43.5461" lon="6.03821">
        <ele>480.8</ele>
        <time>2017-02-15T15:49:57Z</time>
      </trkpt>
      <trkpt lat="43.54617" lon="6.03811">
        <ele>478</ele>
        <time>2017-02-15T15:50:14Z</time>
      </trkpt>
      <trkpt lat="43.54621" lon="6.038">
        <ele>474.7</ele>
        <time>2017-02-15T15:50:29Z</time>
      </trkpt>
      <trkpt lat="43.54629" lon="6.03793">
        <ele>471.6</ele>
        <time>2017-02-15T15:50:43Z</time>
      </trkpt>
      <trkpt lat="43.54636" lon="6.03785">
        <ele>468.5</ele>
        <time>2017-02-15T15:50:58Z</time>
      </trkpt>
      <trkpt lat="43.5464" lon="6.03773">
        <ele>465</ele>
        <time>2017-02-15T15:51:11Z</time>
      </trkpt>
      <trkpt lat="43.54644" lon="6.03761">
        <ele>462.5</ele>
        <time>2017-02-15T15:51:21Z</time>
      </trkpt>
      <trkpt lat="43.54653" lon="6.03756">
        <ele>460.1</ele>
        <time>2017-02-15T15:51:31Z</time>
      </trkpt>
      <trkpt lat="43.54657" lon="6.03745">
        <ele>458.2</ele>
        <time>2017-02-15T15:51:41Z</time>
      </trkpt>
      <trkpt lat="43.54659" lon="6.03733">
        <ele>456.7</ele>
        <time>2017-02-15T15:51:49Z</time>
      </trkpt>
      <trkpt lat="43.54666" lon="6.03723">
        <ele>454.9</ele>
        <time>2017-02-15T15:52:00Z</time>
      </trkpt>
      <trkpt lat="43.54674" lon="6.03717">
        <ele>453.9</ele>
        <time>2017-02-15T15:52:09Z</time>
      </trkpt>
      <trkpt lat="43.54679" lon="6.03706">
        <ele>452.7</ele>
        <time>2017-02-15T15:52:19Z</time>
      </trkpt>
      <trkpt lat="43.54682" lon="6.03694">
        <ele>451.9</ele>
        <time>2017-02-15T15:52:29Z</time>
      </trkpt>
      <trkpt lat="43.54686" lon="6.03682">
        <ele>451</ele>
        <time>2017-02-15T15:52:39Z</time>
      </trkpt>
      <trkpt lat="43.54689" lon="6.0367">
        <ele>450.3</ele>
        <time>2017-02-15T15:52:47Z</time>
      </trkpt>
      <trkpt lat="43.54692" lon="6.03658">
        <ele>449.6</ele>
        <time>2017-02-15T15:52:56Z</time>
      </trkpt>
      <trkpt lat="43.54694" lon="6.03645">
        <ele>448.8</ele>
        <time>2017-02-15T15:53:05Z</time>
      </trkpt>
      <trkpt lat="43.54697" lon="6.03632">
        <ele>447.6</ele>
        <time>2017-02-15T15:53:14Z</time>
      </trkpt>
      <trkpt lat="43.54699" lon="6.0362">
        <ele>446</ele>
        <time>2017-02-15T15:53:23Z</time>
      </trkpt>
      <trkpt lat="43.54703" lon="6.03608">
        <ele>444.4</ele>
        <time>2017-02-15T15:53:32Z</time>
      </trkpt>
      <trkpt lat="43.54707" lon="6.03595">
        <ele>442.8</ele>
        <time>2017-02-15T15:53:42Z</time>
      </trkpt>
      <trkpt lat="43.54709" lon="6.03582">
        <ele>440.9</ele>
        <time>2017-02-15T15:53:51Z</time>
      </trkpt>
      <trkpt lat="43.54713" lon="6.0357">
        <ele>439.7</ele>
        <time>2017-02-15T15:54:03Z</time>
      </trkpt>
      <trkpt lat="43.54717" lon="6.03558">
        <ele>437.8</ele>
        <time>2017-02-15T15:54:14Z</time>
      </trkpt>
      <trkpt lat="43.5472" lon="6.03545">
        <ele>436.3</ele>
        <time>2017-02-15T15:54:23Z</time>
      </trkpt>
      <trkpt lat="43.54721" lon="6.03532">
        <ele>434.6</ele>
        <time>2017-02-15T15:54:32Z</time>
      </trkpt>
      <trkpt lat="43.54721" lon="6.03519">
        <ele>433.2</ele>
        <time>2017-02-15T15:54:40Z</time>
      </trkpt>
      <trkpt lat="43.54723" lon="6.03505">
        <ele>431.8</ele>
        <time>2017-02-15T15:54:46Z</time>
      </trkpt>
      <trkpt lat="43.54727" lon="6.03493">
        <ele>431</ele>
        <time>2017-02-15T15:54:53Z</time>
      </trkpt>
      <trkpt lat="43.54728" lon="6.0348">
        <ele>430</ele>
        <time>2017-02-15T15:55:02Z</time>
      </trkpt>
      <trkpt lat="43.54731" lon="6.03467">
        <ele>429.2</ele>
        <time>2017-02-15T15:55:09Z</time>
      </trkpt>
      <trkpt lat="43.54734" lon="6.03456">
        <ele>428.1</ele>
        <time>2017-02-15T15:55:16Z</time>
      </trkpt>
      <trkpt lat="43.54739" lon="6.03444">
        <ele>427</ele>
        <time>2017-02-15T15:55:24Z</time>
      </trkpt>
      <trkpt lat="43.54743" lon="6.03432">
        <ele>425.7</ele>
        <time>2017-02-15T15:55:32Z</time>
      </trkpt>
      <trkpt lat="43.54748" lon="6.0342">
        <ele>424.3</ele>
        <time>2017-02-15T15:55:40Z</time>
      </trkpt>
      <trkpt lat="43.54753" lon="6.0341">
        <ele>423.1</ele>
        <time>2017-02-15T15:55:48Z</time>
      </trkpt>
      <trkpt lat="43.54759" lon="6.034">
        <ele>421</ele>
        <time>2017-02-15T15:55:57Z</time>
      </trkpt>
      <trkpt lat="43.54765" lon="6.03389">
        <ele>420</ele>
        <time>2017-02-15T15:56:05Z</time>
      </trkpt>
      <trkpt lat="43.54771" lon="6.0338">
        <ele>419</ele>
        <time>2017-02-15T15:56:12Z</time>
      </trkpt>
      <trkpt lat="43.54777" lon="6.03369">
        <ele>417.8</ele>
        <time>2017-02-15T15:56:20Z</time>
      </trkpt>
      <trkpt lat="43.54783" lon="6.03359">
        <ele>417</ele>
        <time>2017-02-15T15:56:30Z</time>
      </trkpt>
      <trkpt lat="43.54787" lon="6.03346">
        <ele>416.2</ele>
        <time>2017-02-15T15:56:39Z</time>
      </trkpt>
      <trkpt lat="43.54791" lon="6.03335">
        <ele>415.5</ele>
        <time>2017-02-15T15:56:46Z</time>
      </trkpt>
      <trkpt lat="43.54792" lon="6.03321">
        <ele>414.7</ele>
        <time>2017-02-15T15:56:54Z</time>
      </trkpt>
      <trkpt lat="43.54791" lon="6.03308">
        <ele>414</ele>
        <time>2017-02-15T15:57:02Z</time>
      </trkpt>
      <trkpt lat="43.5479" lon="6.03296">
        <ele>412.1</ele>
        <time>2017-02-15T15:57:29Z</time>
      </trkpt>
      <trkpt lat="43.54795" lon="6.03286">
        <ele>411.2</ele>
        <time>2017-02-15T16:01:11Z</time>
      </trkpt>
      <trkpt lat="43.54802" lon="6.03276">
        <ele>410.9</ele>
        <time>2017-02-15T16:01:22Z</time>
      </trkpt>
      <trkpt lat="43.54807" lon="6.03265">
        <ele>409.6</ele>
        <time>2017-02-15T16:01:32Z</time>
      </trkpt>
      <trkpt lat="43.54813" lon="6.03255">
        <ele>408.8</ele>
        <time>2017-02-15T16:01:41Z</time>
      </trkpt>
      <trkpt lat="43.54821" lon="6.03247">
        <ele>408.1</ele>
        <time>2017-02-15T16:01:50Z</time>
      </trkpt>
      <trkpt lat="43.5483" lon="6.03239">
        <ele>407.1</ele>
        <time>2017-02-15T16:01:59Z</time>
      </trkpt>
      <trkpt lat="43.54837" lon="6.03232">
        <ele>406.4</ele>
        <time>2017-02-15T16:02:07Z</time>
      </trkpt>
      <trkpt lat="43.54845" lon="6.03225">
        <ele>404.9</ele>
        <time>2017-02-15T16:02:16Z</time>
      </trkpt>
      <trkpt lat="43.54853" lon="6.03219">
        <ele>403.9</ele>
        <time>2017-02-15T16:02:26Z</time>
      </trkpt>
      <trkpt lat="43.54862" lon="6.03215">
        <ele>402.9</ele>
        <time>2017-02-15T16:02:34Z</time>
      </trkpt>
      <trkpt lat="43.5487" lon="6.03211">
        <ele>402.3</ele>
        <time>2017-02-15T16:02:41Z</time>
      </trkpt>
      <trkpt lat="43.54879" lon="6.03206">
        <ele>401.8</ele>
        <time>2017-02-15T16:02:50Z</time>
      </trkpt>
      <trkpt lat="43.54889" lon="6.03202">
        <ele>401</ele>
        <time>2017-02-15T16:02:58Z</time>
      </trkpt>
      <trkpt lat="43.54899" lon="6.032">
        <ele>400.3</ele>
        <time>2017-02-15T16:03:06Z</time>
      </trkpt>
      <trkpt lat="43.54909" lon="6.03198">
        <ele>399.4</ele>
        <time>2017-02-15T16:03:14Z</time>
      </trkpt>
      <trkpt lat="43.54919" lon="6.03198">
        <ele>398.7</ele>
        <time>2017-02-15T16:03:23Z</time>
      </trkpt>
      <trkpt lat="43.54928" lon="6.03198">
        <ele>397.9</ele>
        <time>2017-02-15T16:03:31Z</time>
      </trkpt>
      <trkpt lat="43.54937" lon="6.03198">
        <ele>397.3</ele>
        <time>2017-02-15T16:03:38Z</time>
      </trkpt>
      <trkpt lat="43.54946" lon="6.03195">
        <ele>396.7</ele>
        <time>2017-02-15T16:03:46Z</time>
      </trkpt>
      <trkpt lat="43.54955" lon="6.03191">
        <ele>396.3</ele>
        <time>2017-02-15T16:03:53Z</time>
      </trkpt>
      <trkpt lat="43.54964" lon="6.03187">
        <ele>396</ele>
        <time>2017-02-15T16:04:02Z</time>
      </trkpt>
      <trkpt lat="43.54973" lon="6.03184">
        <ele>396.1</ele>
        <time>2017-02-15T16:04:10Z</time>
      </trkpt>
      <trkpt lat="43.54983" lon="6.03181">
        <ele>396.5</ele>
        <time>2017-02-15T16:04:19Z</time>
      </trkpt>
      <trkpt lat="43.54992" lon="6.0318">
        <ele>397.2</ele>
        <time>2017-02-15T16:04:28Z</time>
      </trkpt>
      <trkpt lat="43.55002" lon="6.03178">
        <ele>398.1</ele>
        <time>2017-02-15T16:04:36Z</time>
      </trkpt>
      <trkpt lat="43.55011" lon="6.03175">
        <ele>398.7</ele>
        <time>2017-02-15T16:04:44Z</time>
      </trkpt>
      <trkpt lat="43.55021" lon="6.03172">
        <ele>398.9</ele>
        <time>2017-02-15T16:04:52Z</time>
      </trkpt>
      <trkpt lat="43.5503" lon="6.03169">
        <ele>398.8</ele>
        <time>2017-02-15T16:05:01Z</time>
      </trkpt>
      <trkpt lat="43.55039" lon="6.03166">
        <ele>398.3</ele>
        <time>2017-02-15T16:05:09Z</time>
      </trkpt>
      <trkpt lat="43.55048" lon="6.03163">
        <ele>397.8</ele>
        <time>2017-02-15T16:05:17Z</time>
      </trkpt>
      <trkpt lat="43.55058" lon="6.03159">
        <ele>397</ele>
        <time>2017-02-15T16:05:26Z</time>
      </trkpt>
      <trkpt lat="43.55068" lon="6.03158">
        <ele>396.5</ele>
        <time>2017-02-15T16:05:35Z</time>
      </trkpt>
      <trkpt lat="43.55077" lon="6.03159">
        <ele>395.8</ele>
        <time>2017-02-15T16:05:44Z</time>
      </trkpt>
      <trkpt lat="43.55086" lon="6.03153">
        <ele>395.1</ele>
        <time>2017-02-15T16:05:51Z</time>
      </trkpt>
      <trkpt lat="43.55094" lon="6.03148">
        <ele>394.6</ele>
        <time>2017-02-15T16:06:00Z</time>
      </trkpt>
      <trkpt lat="43.55103" lon="6.03143">
        <ele>394.3</ele>
        <time>2017-02-15T16:06:09Z</time>
      </trkpt>
      <trkpt lat="43.55112" lon="6.03139">
        <ele>394.2</ele>
        <time>2017-02-15T16:06:18Z</time>
      </trkpt>
      <trkpt lat="43.55121" lon="6.03135">
        <ele>394.6</ele>
        <time>2017-02-15T16:06:28Z</time>
      </trkpt>
      <trkpt lat="43.5513" lon="6.03132">
        <ele>395.3</ele>
        <time>2017-02-15T16:06:40Z</time>
      </trkpt>
      <trkpt lat="43.55139" lon="6.03127">
        <ele>395.8</ele>
        <time>2017-02-15T16:06:50Z</time>
      </trkpt>
      <trkpt lat="43.55147" lon="6.0312">
        <ele>396.4</ele>
        <time>2017-02-15T16:07:00Z</time>
      </trkpt>
      <trkpt lat="43.55155" lon="6.03113">
        <ele>397</ele>
        <time>2017-02-15T16:07:10Z</time>
      </trkpt>
      <trkpt lat="43.55163" lon="6.03106">
        <ele>398.6</ele>
        <time>2017-02-15T16:07:21Z</time>
      </trkpt>
      <trkpt lat="43.55171" lon="6.03098">
        <ele>400.1</ele>
        <time>2017-02-15T16:07:33Z</time>
      </trkpt>
      <trkpt lat="43.55179" lon="6.03093">
        <ele>401.4</ele>
        <time>2017-02-15T16:07:44Z</time>
      </trkpt>
      <trkpt lat="43.55188" lon="6.03089">
        <ele>402.2</ele>
        <time>2017-02-15T16:07:54Z</time>
      </trkpt>
      <trkpt lat="43.55197" lon="6.03083">
        <ele>402.9</ele>
        <time>2017-02-15T16:08:03Z</time>
      </trkpt>
      <trkpt lat="43.55205" lon="6.03078">
        <ele>403.9</ele>
        <time>2017-02-15T16:08:11Z</time>
      </trkpt>
      <trkpt lat="43.55213" lon="6.03073">
        <ele>404.5</ele>
        <time>2017-02-15T16:08:19Z</time>
      </trkpt>
      <trkpt lat="43.55222" lon="6.03068">
        <ele>404.9</ele>
        <time>2017-02-15T16:08:27Z</time>
      </trkpt>
      <trkpt lat="43.55231" lon="6.03063">
        <ele>405.1</ele>
        <time>2017-02-15T16:08:35Z</time>
      </trkpt>
      <trkpt lat="43.5524" lon="6.03059">
        <ele>405.3</ele>
        <time>2017-02-15T16:08:43Z</time>
      </trkpt>
      <trkpt lat="43.55249" lon="6.03056">
        <ele>405.4</ele>
        <time>2017-02-15T16:08:51Z</time>
      </trkpt>
      <trkpt lat="43.55258" lon="6.03057">
        <ele>405.9</ele>
        <time>2017-02-15T16:09:01Z</time>
      </trkpt>
      <trkpt lat="43.55267" lon="6.03055">
        <ele>406.1</ele>
        <time>2017-02-15T16:09:11Z</time>
      </trkpt>
      <trkpt lat="43.55276" lon="6.03056">
        <ele>406.6</ele>
        <time>2017-02-15T16:09:23Z</time>
      </trkpt>
      <trkpt lat="43.55286" lon="6.03061">
        <ele>406.4</ele>
        <time>2017-02-15T16:09:32Z</time>
      </trkpt>
      <trkpt lat="43.55296" lon="6.03061">
        <ele>406.2</ele>
        <time>2017-02-15T16:09:41Z</time>
      </trkpt>
      <trkpt lat="43.55305" lon="6.0306">
        <ele>405.9</ele>
        <time>2017-02-15T16:09:48Z</time>
      </trkpt>
      <trkpt lat="43.55314" lon="6.03056">
        <ele>405.7</ele>
        <time>2017-02-15T16:09:55Z</time>
      </trkpt>
      <trkpt lat="43.55321" lon="6.03063">
        <ele>406.1</ele>
        <time>2017-02-15T16:10:04Z</time>
      </trkpt>
      <trkpt lat="43.55329" lon="6.0307">
        <ele>406.4</ele>
        <time>2017-02-15T16:10:12Z</time>
      </trkpt>
      <trkpt lat="43.55335" lon="6.0308">
        <ele>407.1</ele>
        <time>2017-02-15T16:10:25Z</time>
      </trkpt>
      <trkpt lat="43.55337" lon="6.03093">
        <ele>408</ele>
        <time>2017-02-15T16:10:36Z</time>
      </trkpt>
      <trkpt lat="43.55337" lon="6.03105">
        <ele>409.4</ele>
        <time>2017-02-15T16:10:48Z</time>
      </trkpt>
      <trkpt lat="43.55337" lon="6.03118">
        <ele>410.4</ele>
        <time>2017-02-15T16:11:02Z</time>
      </trkpt>
      <trkpt lat="43.55334" lon="6.03131">
        <ele>411</ele>
        <time>2017-02-15T16:11:12Z</time>
      </trkpt>
      <trkpt lat="43.55333" lon="6.03145">
        <ele>411.5</ele>
        <time>2017-02-15T16:11:23Z</time>
      </trkpt>
      <trkpt lat="43.55338" lon="6.03155">
        <ele>412.5</ele>
        <time>2017-02-15T16:11:38Z</time>
      </trkpt>
      <trkpt lat="43.55348" lon="6.03155">
        <ele>413.6</ele>
        <time>2017-02-15T16:11:53Z</time>
      </trkpt>
      <trkpt lat="43.55357" lon="6.03153">
        <ele>415.3</ele>
        <time>2017-02-15T16:12:11Z</time>
      </trkpt>
      <trkpt lat="43.55366" lon="6.03154">
        <ele>416.6</ele>
        <time>2017-02-15T16:12:23Z</time>
      </trkpt>
      <trkpt lat="43.55375" lon="6.03156">
        <ele>418</ele>
        <time>2017-02-15T16:12:37Z</time>
      </trkpt>
      <trkpt lat="43.55384" lon="6.03153">
        <ele>419.5</ele>
        <time>2017-02-15T16:12:50Z</time>
      </trkpt>
      <trkpt lat="43.55392" lon="6.03146">
        <ele>421.2</ele>
        <time>2017-02-15T16:13:03Z</time>
      </trkpt>
      <trkpt lat="43.55399" lon="6.03139">
        <ele>424.5</ele>
        <time>2017-02-15T16:13:59Z</time>
      </trkpt>
      <trkpt lat="43.55404" lon="6.0315">
        <ele>424.8</ele>
        <time>2017-02-15T16:14:22Z</time>
      </trkpt>
      <trkpt lat="43.55411" lon="6.03141">
        <ele>425.4</ele>
        <time>2017-02-15T16:15:02Z</time>
      </trkpt>
      <trkpt lat="43.55419" lon="6.03147">
        <ele>425.6</ele>
        <time>2017-02-15T16:15:29Z</time>
      </trkpt>
      <trkpt lat="43.55423" lon="6.03136">
        <ele>425.6</ele>
        <time>2017-02-15T16:15:46Z</time>
      </trkpt>
      <trkpt lat="43.55428" lon="6.03125">
        <ele>426.2</ele>
        <time>2017-02-15T16:17:01Z</time>
      </trkpt>
      <trkpt lat="43.5542" lon="6.03117">
        <ele>425.9</ele>
        <time>2017-02-15T16:17:24Z</time>
      </trkpt>
      <trkpt lat="43.55428" lon="6.0311">
        <ele>421.1</ele>
        <time>2017-02-15T16:17:58Z</time>
      </trkpt>
      <trkpt lat="43.55437" lon="6.03104">
        <ele>419.7</ele>
        <time>2017-02-15T16:18:10Z</time>
      </trkpt>
      <trkpt lat="43.55445" lon="6.03098">
        <ele>416.3</ele>
        <time>2017-02-15T16:18:29Z</time>
      </trkpt>
      <trkpt lat="43.55439" lon="6.03088">
        <ele>414.8</ele>
        <time>2017-02-15T16:18:42Z</time>
      </trkpt>
      <trkpt lat="43.55445" lon="6.03079">
        <ele>410.2</ele>
        <time>2017-02-15T16:19:19Z</time>
      </trkpt>
      <trkpt lat="43.55454" lon="6.0308">
        <ele>406.3</ele>
        <time>2017-02-15T16:19:47Z</time>
      </trkpt>
      <trkpt lat="43.55461" lon="6.03071">
        <ele>403.3</ele>
        <time>2017-02-15T16:20:07Z</time>
      </trkpt>
      <trkpt lat="43.55469" lon="6.03066">
        <ele>400.5</ele>
        <time>2017-02-15T16:20:34Z</time>
      </trkpt>
      <trkpt lat="43.55469" lon="6.03053">
        <ele>397.7</ele>
        <time>2017-02-15T16:20:48Z</time>
      </trkpt>
      <trkpt lat="43.55477" lon="6.03047">
        <ele>394</ele>
        <time>2017-02-15T16:21:16Z</time>
      </trkpt>
      <trkpt lat="43.55486" lon="6.03047">
        <ele>391.8</ele>
        <time>2017-02-15T16:22:40Z</time>
      </trkpt>
      <trkpt lat="43.55478" lon="6.03053">
        <ele>391.7</ele>
        <time>2017-02-15T16:25:47Z</time>
      </trkpt>
      <trkpt lat="43.55488" lon="6.03052">
        <ele>391.6</ele>
        <time>2017-02-15T16:26:07Z</time>
      </trkpt>
      <trkpt lat="43.55498" lon="6.03051">
        <ele>390.8</ele>
        <time>2017-02-15T16:26:18Z</time>
      </trkpt>
      <trkpt lat="43.55507" lon="6.03051">
        <ele>389.9</ele>
        <time>2017-02-15T16:26:28Z</time>
      </trkpt>
      <trkpt lat="43.55516" lon="6.03051">
        <ele>388.6</ele>
        <time>2017-02-15T16:26:37Z</time>
      </trkpt>
      <trkpt lat="43.55525" lon="6.03053">
        <ele>387.3</ele>
        <time>2017-02-15T16:26:47Z</time>
      </trkpt>
      <trkpt lat="43.55534" lon="6.03054">
        <ele>386.1</ele>
        <time>2017-02-15T16:26:57Z</time>
      </trkpt>
      <trkpt lat="43.55544" lon="6.03053">
        <ele>385.2</ele>
        <time>2017-02-15T16:27:05Z</time>
      </trkpt>
      <trkpt lat="43.55553" lon="6.03052">
        <ele>383.5</ele>
        <time>2017-02-15T16:27:30Z</time>
      </trkpt>
      <trkpt lat="43.55563" lon="6.03054">
        <ele>383.1</ele>
        <time>2017-02-15T16:27:40Z</time>
      </trkpt>
      <trkpt lat="43.55572" lon="6.03055">
        <ele>382.7</ele>
        <time>2017-02-15T16:27:50Z</time>
      </trkpt>
      <trkpt lat="43.55582" lon="6.03056">
        <ele>382.1</ele>
        <time>2017-02-15T16:28:00Z</time>
      </trkpt>
      <trkpt lat="43.55591" lon="6.03056">
        <ele>381.6</ele>
        <time>2017-02-15T16:28:09Z</time>
      </trkpt>
      <trkpt lat="43.55599" lon="6.03058">
        <ele>380.9</ele>
        <time>2017-02-15T16:28:19Z</time>
      </trkpt>
      <trkpt lat="43.55609" lon="6.03061">
        <ele>380</ele>
        <time>2017-02-15T16:28:28Z</time>
      </trkpt>
      <trkpt lat="43.55619" lon="6.03063">
        <ele>379.5</ele>
        <time>2017-02-15T16:28:36Z</time>
      </trkpt>
      <trkpt lat="43.55629" lon="6.03064">
        <ele>378.9</ele>
        <time>2017-02-15T16:28:46Z</time>
      </trkpt>
      <trkpt lat="43.55638" lon="6.03062">
        <ele>378.3</ele>
        <time>2017-02-15T16:28:54Z</time>
      </trkpt>
      <trkpt lat="43.55646" lon="6.03057">
        <ele>377.7</ele>
        <time>2017-02-15T16:29:02Z</time>
      </trkpt>
      <trkpt lat="43.55655" lon="6.03052">
        <ele>377</ele>
        <time>2017-02-15T16:29:11Z</time>
      </trkpt>
      <trkpt lat="43.55664" lon="6.03047">
        <ele>375.9</ele>
        <time>2017-02-15T16:29:20Z</time>
      </trkpt>
      <trkpt lat="43.55673" lon="6.03042">
        <ele>374.7</ele>
        <time>2017-02-15T16:29:31Z</time>
      </trkpt>
      <trkpt lat="43.55682" lon="6.03039">
        <ele>373.6</ele>
        <time>2017-02-15T16:29:41Z</time>
      </trkpt>
      <trkpt lat="43.55691" lon="6.03033">
        <ele>372.8</ele>
        <time>2017-02-15T16:29:49Z</time>
      </trkpt>
      <trkpt lat="43.557" lon="6.03028">
        <ele>372</ele>
        <time>2017-02-15T16:29:59Z</time>
      </trkpt>
      <trkpt lat="43.55708" lon="6.03023">
        <ele>371.3</ele>
        <time>2017-02-15T16:30:07Z</time>
      </trkpt>
      <trkpt lat="43.55717" lon="6.03018">
        <ele>370.5</ele>
        <time>2017-02-15T16:30:15Z</time>
      </trkpt>
      <trkpt lat="43.55726" lon="6.03012">
        <ele>369.4</ele>
        <time>2017-02-15T16:30:23Z</time>
      </trkpt>
      <trkpt lat="43.55735" lon="6.03005">
        <ele>368.7</ele>
        <time>2017-02-15T16:30:31Z</time>
      </trkpt>
      <trkpt lat="43.55743" lon="6.02999">
        <ele>367.8</ele>
        <time>2017-02-15T16:30:39Z</time>
      </trkpt>
      <trkpt lat="43.55752" lon="6.02992">
        <ele>366.5</ele>
        <time>2017-02-15T16:30:47Z</time>
      </trkpt>
      <trkpt lat="43.5576" lon="6.02986">
        <ele>365.4</ele>
        <time>2017-02-15T16:30:55Z</time>
      </trkpt>
      <trkpt lat="43.55769" lon="6.0298">
        <ele>364.6</ele>
        <time>2017-02-15T16:31:03Z</time>
      </trkpt>
      <trkpt lat="43.55778" lon="6.02975">
        <ele>363.1</ele>
        <time>2017-02-15T16:31:12Z</time>
      </trkpt>
      <trkpt lat="43.55787" lon="6.0297">
        <ele>361.6</ele>
        <time>2017-02-15T16:31:21Z</time>
      </trkpt>
      <trkpt lat="43.55795" lon="6.02964">
        <ele>360.5</ele>
        <time>2017-02-15T16:31:30Z</time>
      </trkpt>
      <trkpt lat="43.55804" lon="6.02961">
        <ele>360</ele>
        <time>2017-02-15T16:31:40Z</time>
      </trkpt>
      <trkpt lat="43.55814" lon="6.02959">
        <ele>359.3</ele>
        <time>2017-02-15T16:31:49Z</time>
      </trkpt>
      <trkpt lat="43.55822" lon="6.02951">
        <ele>358.3</ele>
        <time>2017-02-15T16:31:57Z</time>
      </trkpt>
      <trkpt lat="43.5583" lon="6.02944">
        <ele>357.1</ele>
        <time>2017-02-15T16:32:07Z</time>
      </trkpt>
      <trkpt lat="43.5584" lon="6.0294">
        <ele>356.4</ele>
        <time>2017-02-15T16:32:17Z</time>
      </trkpt>
      <trkpt lat="43.55849" lon="6.02938">
        <ele>355.8</ele>
        <time>2017-02-15T16:32:26Z</time>
      </trkpt>
      <trkpt lat="43.55858" lon="6.02934">
        <ele>355.3</ele>
        <time>2017-02-15T16:32:34Z</time>
      </trkpt>
      <trkpt lat="43.55867" lon="6.02928">
        <ele>355</ele>
        <time>2017-02-15T16:32:42Z</time>
      </trkpt>
      <trkpt lat="43.55875" lon="6.02921">
        <ele>354.8</ele>
        <time>2017-02-15T16:32:49Z</time>
      </trkpt>
      <trkpt lat="43.55883" lon="6.02914">
        <ele>354.4</ele>
        <time>2017-02-15T16:32:56Z</time>
      </trkpt>
      <trkpt lat="43.55892" lon="6.02907">
        <ele>354</ele>
        <time>2017-02-15T16:33:04Z</time>
      </trkpt>
      <trkpt lat="43.559" lon="6.029">
        <ele>353.5</ele>
        <time>2017-02-15T16:33:12Z</time>
      </trkpt>
      <trkpt lat="43.55909" lon="6.02894">
        <ele>353</ele>
        <time>2017-02-15T16:33:20Z</time>
      </trkpt>
      <trkpt lat="43.55918" lon="6.02888">
        <ele>352.6</ele>
        <time>2017-02-15T16:33:28Z</time>
      </trkpt>
      <trkpt lat="43.55927" lon="6.02883">
        <ele>351.8</ele>
        <time>2017-02-15T16:33:37Z</time>
      </trkpt>
      <trkpt lat="43.55936" lon="6.02877">
        <ele>351.4</ele>
        <time>2017-02-15T16:33:45Z</time>
      </trkpt>
      <trkpt lat="43.55945" lon="6.02871">
        <ele>351</ele>
        <time>2017-02-15T16:33:53Z</time>
      </trkpt>
      <trkpt lat="43.55953" lon="6.02865">
        <ele>350.5</ele>
        <time>2017-02-15T16:34:01Z</time>
      </trkpt>
      <trkpt lat="43.55962" lon="6.02861">
        <ele>350.2</ele>
        <time>2017-02-15T16:34:10Z</time>
      </trkpt>
      <trkpt lat="43.55971" lon="6.02856">
        <ele>350.1</ele>
        <time>2017-02-15T16:34:19Z</time>
      </trkpt>
      <trkpt lat="43.55979" lon="6.02851">
        <ele>349.7</ele>
        <time>2017-02-15T16:34:28Z</time>
      </trkpt>
      <trkpt lat="43.55988" lon="6.02846">
        <ele>349.6</ele>
        <time>2017-02-15T16:34:37Z</time>
      </trkpt>
      <trkpt lat="43.55997" lon="6.02841">
        <ele>349.7</ele>
        <time>2017-02-15T16:34:46Z</time>
      </trkpt>
      <trkpt lat="43.56006" lon="6.02836">
        <ele>349.5</ele>
        <time>2017-02-15T16:34:55Z</time>
      </trkpt>
      <trkpt lat="43.56014" lon="6.02829">
        <ele>349.4</ele>
        <time>2017-02-15T16:35:04Z</time>
      </trkpt>
      <trkpt lat="43.5602" lon="6.02819">
        <ele>348.9</ele>
        <time>2017-02-15T16:35:16Z</time>
      </trkpt>
      <trkpt lat="43.56021" lon="6.02806">
        <ele>348.7</ele>
        <time>2017-02-15T16:35:26Z</time>
      </trkpt>
      <trkpt lat="43.56022" lon="6.02792">
        <ele>348.6</ele>
        <time>2017-02-15T16:35:35Z</time>
      </trkpt>
      <trkpt lat="43.56024" lon="6.02779">
        <ele>348.6</ele>
        <time>2017-02-15T16:35:43Z</time>
      </trkpt>
      <trkpt lat="43.56024" lon="6.02766">
        <ele>348.9</ele>
        <time>2017-02-15T16:35:52Z</time>
      </trkpt>
      <trkpt lat="43.56026" lon="6.02753">
        <ele>348.5</ele>
        <time>2017-02-15T16:36:00Z</time>
      </trkpt>
      <trkpt lat="43.56028" lon="6.0274">
        <ele>348.4</ele>
        <time>2017-02-15T16:36:07Z</time>
      </trkpt>
      <trkpt lat="43.5603" lon="6.02727">
        <ele>348.5</ele>
        <time>2017-02-15T16:36:14Z</time>
      </trkpt>
      <trkpt lat="43.5603" lon="6.02715">
        <ele>348.5</ele>
        <time>2017-02-15T16:36:21Z</time>
      </trkpt>
      <trkpt lat="43.56031" lon="6.02701">
        <ele>348.6</ele>
        <time>2017-02-15T16:36:29Z</time>
      </trkpt>
      <trkpt lat="43.56032" lon="6.02687">
        <ele>348.4</ele>
        <time>2017-02-15T16:36:37Z</time>
      </trkpt>
      <trkpt lat="43.56033" lon="6.02673">
        <ele>347.9</ele>
        <time>2017-02-15T16:36:46Z</time>
      </trkpt>
      <trkpt lat="43.56035" lon="6.0266">
        <ele>347.9</ele>
        <time>2017-02-15T16:36:53Z</time>
      </trkpt>
      <trkpt lat="43.56036" lon="6.02648">
        <ele>347.9</ele>
        <time>2017-02-15T16:37:00Z</time>
      </trkpt>
      <trkpt lat="43.56036" lon="6.02635">
        <ele>348.1</ele>
        <time>2017-02-15T16:37:09Z</time>
      </trkpt>
      <trkpt lat="43.56036" lon="6.02621">
        <ele>348</ele>
        <time>2017-02-15T16:37:17Z</time>
      </trkpt>
      <trkpt lat="43.56036" lon="6.02608">
        <ele>348.1</ele>
        <time>2017-02-15T16:37:24Z</time>
      </trkpt>
      <trkpt lat="43.56036" lon="6.02595">
        <ele>348.3</ele>
        <time>2017-02-15T16:37:31Z</time>
      </trkpt>
      <trkpt lat="43.56036" lon="6.02582">
        <ele>348.4</ele>
        <time>2017-02-15T16:37:39Z</time>
      </trkpt>
      <trkpt lat="43.56036" lon="6.02569">
        <ele>348.7</ele>
        <time>2017-02-15T16:37:46Z</time>
      </trkpt>
      <trkpt lat="43.56037" lon="6.02556">
        <ele>348.7</ele>
        <time>2017-02-15T16:37:54Z</time>
      </trkpt>
      <trkpt lat="43.56037" lon="6.02543">
        <ele>348.8</ele>
        <time>2017-02-15T16:38:02Z</time>
      </trkpt>
      <trkpt lat="43.56037" lon="6.0253">
        <ele>348.7</ele>
        <time>2017-02-15T16:38:10Z</time>
      </trkpt>
      <trkpt lat="43.56037" lon="6.02518">
        <ele>348.6</ele>
        <time>2017-02-15T16:38:17Z</time>
      </trkpt>
      <trkpt lat="43.56037" lon="6.02505">
        <ele>348.7</ele>
        <time>2017-02-15T16:38:24Z</time>
      </trkpt>
      <trkpt lat="43.56036" lon="6.02491">
        <ele>348.9</ele>
        <time>2017-02-15T16:38:31Z</time>
      </trkpt>
      <trkpt lat="43.56034" lon="6.02478">
        <ele>348.7</ele>
        <time>2017-02-15T16:38:38Z</time>
      </trkpt>
      <trkpt lat="43.56034" lon="6.02464">
        <ele>348.7</ele>
        <time>2017-02-15T16:38:45Z</time>
      </trkpt>
      <trkpt lat="43.5603" lon="6.02451">
        <ele>348.8</ele>
        <time>2017-02-15T16:38:53Z</time>
      </trkpt>
      <trkpt lat="43.56029" lon="6.02437">
        <ele>348.9</ele>
        <time>2017-02-15T16:39:00Z</time>
      </trkpt>
      <trkpt lat="43.56027" lon="6.02424">
        <ele>348.7</ele>
        <time>2017-02-15T16:39:08Z</time>
      </trkpt>
      <trkpt lat="43.56025" lon="6.0241">
        <ele>348.5</ele>
        <time>2017-02-15T16:39:16Z</time>
      </trkpt>
      <trkpt lat="43.56019" lon="6.024">
        <ele>348.4</ele>
        <time>2017-02-15T16:39:24Z</time>
      </trkpt>
      <trkpt lat="43.56013" lon="6.0239">
        <ele>348.3</ele>
        <time>2017-02-15T16:39:31Z</time>
      </trkpt>
      <trkpt lat="43.56008" lon="6.0238">
        <ele>348.3</ele>
        <time>2017-02-15T16:39:38Z</time>
      </trkpt>
      <trkpt lat="43.56003" lon="6.02369">
        <ele>348.4</ele>
        <time>2017-02-15T16:39:45Z</time>
      </trkpt>
      <trkpt lat="43.55998" lon="6.02358">
        <ele>348.5</ele>
        <time>2017-02-15T16:39:52Z</time>
      </trkpt>
      <trkpt lat="43.55993" lon="6.02348">
        <ele>348.1</ele>
        <time>2017-02-15T16:40:00Z</time>
      </trkpt>
      <trkpt lat="43.55989" lon="6.02337">
        <ele>348.1</ele>
        <time>2017-02-15T16:40:08Z</time>
      </trkpt>
      <trkpt lat="43.55984" lon="6.02325">
        <ele>348.3</ele>
        <time>2017-02-15T16:40:16Z</time>
      </trkpt>
      <trkpt lat="43.55979" lon="6.02314">
        <ele>348.3</ele>
        <time>2017-02-15T16:40:23Z</time>
      </trkpt>
      <trkpt lat="43.55974" lon="6.02303">
        <ele>348.3</ele>
        <time>2017-02-15T16:40:30Z</time>
      </trkpt>
      <trkpt lat="43.55969" lon="6.02291">
        <ele>348.3</ele>
        <time>2017-02-15T16:40:38Z</time>
      </trkpt>
      <trkpt lat="43.55964" lon="6.02281">
        <ele>348.4</ele>
        <time>2017-02-15T16:40:45Z</time>
      </trkpt>
      <trkpt lat="43.5596" lon="6.02269">
        <ele>348.3</ele>
        <time>2017-02-15T16:40:53Z</time>
      </trkpt>
      <trkpt lat="43.55956" lon="6.02258">
        <ele>348.1</ele>
        <time>2017-02-15T16:41:00Z</time>
      </trkpt>
      <trkpt lat="43.55952" lon="6.02245">
        <ele>348.1</ele>
        <time>2017-02-15T16:41:08Z</time>
      </trkpt>
      <trkpt lat="43.5595" lon="6.02231">
        <ele>348.1</ele>
        <time>2017-02-15T16:41:16Z</time>
      </trkpt>
      <trkpt lat="43.55944" lon="6.02222">
        <ele>348.2</ele>
        <time>2017-02-15T16:41:23Z</time>
      </trkpt>
      <trkpt lat="43.5594" lon="6.0221">
        <ele>347.9</ele>
        <time>2017-02-15T16:41:31Z</time>
      </trkpt>
      <trkpt lat="43.55936" lon="6.02199">
        <ele>347.6</ele>
        <time>2017-02-15T16:41:39Z</time>
      </trkpt>
      <trkpt lat="43.55931" lon="6.02187">
        <ele>347.4</ele>
        <time>2017-02-15T16:41:48Z</time>
      </trkpt>
      <trkpt lat="43.55924" lon="6.02178">
        <ele>347.2</ele>
        <time>2017-02-15T16:41:56Z</time>
      </trkpt>
      <trkpt lat="43.55919" lon="6.02168">
        <ele>347</ele>
        <time>2017-02-15T16:42:04Z</time>
      </trkpt>
      <trkpt lat="43.55915" lon="6.02155">
        <ele>347</ele>
        <time>2017-02-15T16:42:14Z</time>
      </trkpt>
      <trkpt lat="43.55909" lon="6.02144">
        <ele>346.4</ele>
        <time>2017-02-15T16:42:22Z</time>
      </trkpt>
      <trkpt lat="43.55903" lon="6.02133">
        <ele>346</ele>
        <time>2017-02-15T16:42:30Z</time>
      </trkpt>
      <trkpt lat="43.55897" lon="6.02123">
        <ele>345.8</ele>
        <time>2017-02-15T16:42:38Z</time>
      </trkpt>
      <trkpt lat="43.55893" lon="6.02111">
        <ele>345.7</ele>
        <time>2017-02-15T16:42:48Z</time>
      </trkpt>
      <trkpt lat="43.55892" lon="6.02098">
        <ele>345.9</ele>
        <time>2017-02-15T16:42:57Z</time>
      </trkpt>
      <trkpt lat="43.55891" lon="6.02085">
        <ele>345.9</ele>
        <time>2017-02-15T16:43:03Z</time>
      </trkpt>
      <trkpt lat="43.55887" lon="6.02072">
        <ele>345.8</ele>
        <time>2017-02-15T16:43:11Z</time>
      </trkpt>
      <trkpt lat="43.55886" lon="6.02058">
        <ele>345.7</ele>
        <time>2017-02-15T16:43:19Z</time>
      </trkpt>
      <trkpt lat="43.55885" lon="6.02046">
        <ele>345.7</ele>
        <time>2017-02-15T16:43:29Z</time>
      </trkpt>
      <trkpt lat="43.55885" lon="6.02032">
        <ele>345.8</ele>
        <time>2017-02-15T16:43:38Z</time>
      </trkpt>
      <trkpt lat="43.55887" lon="6.02019">
        <ele>345.9</ele>
        <time>2017-02-15T16:43:46Z</time>
      </trkpt>
      <trkpt lat="43.5589" lon="6.02007">
        <ele>345.9</ele>
        <time>2017-02-15T16:43:53Z</time>
      </trkpt>
      <trkpt lat="43.55892" lon="6.01993">
        <ele>345.8</ele>
        <time>2017-02-15T16:44:01Z</time>
      </trkpt>
      <trkpt lat="43.55894" lon="6.0198">
        <ele>346</ele>
        <time>2017-02-15T16:44:07Z</time>
      </trkpt>
      <trkpt lat="43.55897" lon="6.01967">
        <ele>346.1</ele>
        <time>2017-02-15T16:44:14Z</time>
      </trkpt>
      <trkpt lat="43.559" lon="6.01955">
        <ele>345.5</ele>
        <time>2017-02-15T16:44:21Z</time>
      </trkpt>
      <trkpt lat="43.55903" lon="6.01942">
        <ele>345.4</ele>
        <time>2017-02-15T16:44:28Z</time>
      </trkpt>
      <trkpt lat="43.55907" lon="6.01929">
        <ele>345.5</ele>
        <time>2017-02-15T16:44:36Z</time>
      </trkpt>
      <trkpt lat="43.5591" lon="6.01917">
        <ele>345.5</ele>
        <time>2017-02-15T16:44:44Z</time>
      </trkpt>
      <trkpt lat="43.55914" lon="6.01905">
        <ele>345.6</ele>
        <time>2017-02-15T16:44:50Z</time>
      </trkpt>
      <trkpt lat="43.55917" lon="6.01893">
        <ele>345.6</ele>
        <time>2017-02-15T16:44:56Z</time>
      </trkpt>
      <trkpt lat="43.55919" lon="6.01881">
        <ele>345.6</ele>
        <time>2017-02-15T16:45:03Z</time>
      </trkpt>
      <trkpt lat="43.55922" lon="6.01868">
        <ele>345.6</ele>
        <time>2017-02-15T16:45:10Z</time>
      </trkpt>
      <trkpt lat="43.55925" lon="6.01855">
        <ele>345.4</ele>
        <time>2017-02-15T16:45:19Z</time>
      </trkpt>
      <trkpt lat="43.55929" lon="6.01843">
        <ele>345.3</ele>
        <time>2017-02-15T16:45:27Z</time>
      </trkpt>
      <trkpt lat="43.55933" lon="6.01832">
        <ele>345.5</ele>
        <time>2017-02-15T16:45:55Z</time>
      </trkpt>
      <trkpt lat="43.5594" lon="6.01825">
        <ele>346</ele>
        <time>2017-02-15T16:47:55Z</time>
      </trkpt>
      <trkpt lat="43.55948" lon="6.01817">
        <ele>346.3</ele>
        <time>2017-02-15T16:48:16Z</time>
      </trkpt>
      <trkpt lat="43.55957" lon="6.01813">
        <ele>346.3</ele>
        <time>2017-02-15T16:48:26Z</time>
      </trkpt>
      <trkpt lat="43.55965" lon="6.01807">
        <ele>345.7</ele>
        <time>2017-02-15T16:48:37Z</time>
      </trkpt>
      <trkpt lat="43.5597" lon="6.01796">
        <ele>345.3</ele>
        <time>2017-02-15T16:48:46Z</time>
      </trkpt>
      <trkpt lat="43.55973" lon="6.01784">
        <ele>345</ele>
        <time>2017-02-15T16:48:54Z</time>
      </trkpt>
      <trkpt lat="43.55976" lon="6.01772">
        <ele>344.7</ele>
        <time>2017-02-15T16:49:02Z</time>
      </trkpt>
      <trkpt lat="43.55979" lon="6.01759">
        <ele>343.9</ele>
        <time>2017-02-15T16:49:12Z</time>
      </trkpt>
      <trkpt lat="43.55981" lon="6.01747">
        <ele>343.5</ele>
        <time>2017-02-15T16:49:21Z</time>
      </trkpt>
      <trkpt lat="43.55984" lon="6.01734">
        <ele>343.3</ele>
        <time>2017-02-15T16:49:31Z</time>
      </trkpt>
      <trkpt lat="43.55987" lon="6.01721">
        <ele>342.8</ele>
        <time>2017-02-15T16:49:43Z</time>
      </trkpt>
      <trkpt lat="43.55987" lon="6.01708">
        <ele>342.7</ele>
        <time>2017-02-15T16:49:53Z</time>
      </trkpt>
      <trkpt lat="43.55987" lon="6.01695">
        <ele>342.9</ele>
        <time>2017-02-15T16:50:02Z</time>
      </trkpt>
      <trkpt lat="43.55987" lon="6.01681">
        <ele>342.7</ele>
        <time>2017-02-15T16:50:10Z</time>
      </trkpt>
      <trkpt lat="43.55987" lon="6.01668">
        <ele>343</ele>
        <time>2017-02-15T16:50:17Z</time>
      </trkpt>
      <trkpt lat="43.55986" lon="6.01654">
        <ele>342.9</ele>
        <time>2017-02-15T16:50:25Z</time>
      </trkpt>
      <trkpt lat="43.55987" lon="6.01642">
        <ele>343.1</ele>
        <time>2017-02-15T16:50:32Z</time>
      </trkpt>
      <trkpt lat="43.55985" lon="6.0163">
        <ele>343.3</ele>
        <time>2017-02-15T16:50:41Z</time>
      </trkpt>
      <trkpt lat="43.55983" lon="6.01617">
        <ele>343.6</ele>
        <time>2017-02-15T16:50:50Z</time>
      </trkpt>
      <trkpt lat="43.5598" lon="6.01603">
        <ele>343.8</ele>
        <time>2017-02-15T16:50:59Z</time>
      </trkpt>
      <trkpt lat="43.55978" lon="6.0159">
        <ele>343.8</ele>
        <time>2017-02-15T16:51:07Z</time>
      </trkpt>
      <trkpt lat="43.55977" lon="6.01577">
        <ele>343.8</ele>
        <time>2017-02-15T16:51:14Z</time>
      </trkpt>
      <trkpt lat="43.55974" lon="6.01565">
        <ele>343.7</ele>
        <time>2017-02-15T16:51:21Z</time>
      </trkpt>
      <trkpt lat="43.5597" lon="6.01553">
        <ele>343.7</ele>
        <time>2017-02-15T16:51:28Z</time>
      </trkpt>
      <trkpt lat="43.55969" lon="6.0154">
        <ele>344</ele>
        <time>2017-02-15T16:51:38Z</time>
      </trkpt>
      <trkpt lat="43.55965" lon="6.01529">
        <ele>344.3</ele>
        <time>2017-02-15T16:51:45Z</time>
      </trkpt>
      <trkpt lat="43.55961" lon="6.01517">
        <ele>345.1</ele>
        <time>2017-02-15T16:51:53Z</time>
      </trkpt>
      <trkpt lat="43.55959" lon="6.01503">
        <ele>345.5</ele>
        <time>2017-02-15T16:52:01Z</time>
      </trkpt>
      <trkpt lat="43.55953" lon="6.01491">
        <ele>345.7</ele>
        <time>2017-02-15T16:52:10Z</time>
      </trkpt>
      <trkpt lat="43.55947" lon="6.01481">
        <ele>345.8</ele>
        <time>2017-02-15T16:52:17Z</time>
      </trkpt>
      <trkpt lat="43.5594" lon="6.01471">
        <ele>345.4</ele>
        <time>2017-02-15T16:52:24Z</time>
      </trkpt>
      <trkpt lat="43.55934" lon="6.01462">
        <ele>345</ele>
        <time>2017-02-15T16:52:35Z</time>
      </trkpt>
      <trkpt lat="43.55929" lon="6.01451">
        <ele>344.8</ele>
        <time>2017-02-15T16:52:46Z</time>
      </trkpt>
      <trkpt lat="43.55921" lon="6.01444">
        <ele>344.7</ele>
        <time>2017-02-15T16:52:55Z</time>
      </trkpt>
      <trkpt lat="43.55915" lon="6.01433">
        <ele>344.6</ele>
        <time>2017-02-15T16:53:03Z</time>
      </trkpt>
      <trkpt lat="43.5591" lon="6.01423">
        <ele>344.3</ele>
        <time>2017-02-15T16:53:10Z</time>
      </trkpt>
      <trkpt lat="43.5591" lon="6.01408">
        <ele>344.1</ele>
        <time>2017-02-15T16:53:19Z</time>
      </trkpt>
      <trkpt lat="43.55914" lon="6.01395">
        <ele>344</ele>
        <time>2017-02-15T16:53:26Z</time>
      </trkpt>
      <trkpt lat="43.55914" lon="6.01382">
        <ele>343.4</ele>
        <time>2017-02-15T16:53:35Z</time>
      </trkpt>
      <trkpt lat="43.55912" lon="6.01369">
        <ele>343.3</ele>
        <time>2017-02-15T16:53:43Z</time>
      </trkpt>
      <trkpt lat="43.55912" lon="6.01357">
        <ele>343</ele>
        <time>2017-02-15T16:53:51Z</time>
      </trkpt>
      <trkpt lat="43.55914" lon="6.01343">
        <ele>342.5</ele>
        <time>2017-02-15T16:53:59Z</time>
      </trkpt>
      <trkpt lat="43.55916" lon="6.0133">
        <ele>342</ele>
        <time>2017-02-15T16:54:07Z</time>
      </trkpt>
      <trkpt lat="43.5592" lon="6.01318">
        <ele>341.8</ele>
        <time>2017-02-15T16:54:14Z</time>
      </trkpt>
      <trkpt lat="43.55923" lon="6.01304">
        <ele>341.5</ele>
        <time>2017-02-15T16:54:22Z</time>
      </trkpt>
      <trkpt lat="43.55924" lon="6.01291">
        <ele>341.3</ele>
        <time>2017-02-15T16:54:30Z</time>
      </trkpt>
      <trkpt lat="43.55925" lon="6.01278">
        <ele>341.1</ele>
        <time>2017-02-15T16:54:38Z</time>
      </trkpt>
      <trkpt lat="43.5593" lon="6.01268">
        <ele>340.7</ele>
        <time>2017-02-15T16:54:46Z</time>
      </trkpt>
      <trkpt lat="43.55935" lon="6.01257">
        <ele>340.2</ele>
        <time>2017-02-15T16:54:54Z</time>
      </trkpt>
      <trkpt lat="43.55941" lon="6.01247">
        <ele>339.9</ele>
        <time>2017-02-15T16:55:03Z</time>
      </trkpt>
      <trkpt lat="43.55948" lon="6.01238">
        <ele>339.3</ele>
        <time>2017-02-15T16:55:11Z</time>
      </trkpt>
      <trkpt lat="43.55955" lon="6.01227">
        <ele>339.1</ele>
        <time>2017-02-15T16:55:19Z</time>
      </trkpt>
      <trkpt lat="43.55961" lon="6.01218">
        <ele>338.9</ele>
        <time>2017-02-15T16:55:27Z</time>
      </trkpt>
      <trkpt lat="43.55969" lon="6.0121">
        <ele>338.4</ele>
        <time>2017-02-15T16:55:35Z</time>
      </trkpt>
      <trkpt lat="43.55976" lon="6.01202">
        <ele>338</ele>
        <time>2017-02-15T16:55:42Z</time>
      </trkpt>
      <trkpt lat="43.55984" lon="6.01195">
        <ele>337.7</ele>
        <time>2017-02-15T16:55:49Z</time>
      </trkpt>
      <trkpt lat="43.55992" lon="6.01187">
        <ele>337.3</ele>
        <time>2017-02-15T16:55:57Z</time>
      </trkpt>
      <trkpt lat="43.56" lon="6.01179">
        <ele>337.3</ele>
        <time>2017-02-15T16:56:05Z</time>
      </trkpt>
      <trkpt lat="43.56009" lon="6.01172">
        <ele>337</ele>
        <time>2017-02-15T16:56:14Z</time>
      </trkpt>
      <trkpt lat="43.56017" lon="6.01167">
        <ele>336.9</ele>
        <time>2017-02-15T16:56:23Z</time>
      </trkpt>
      <trkpt lat="43.56026" lon="6.01161">
        <ele>336.8</ele>
        <time>2017-02-15T16:56:31Z</time>
      </trkpt>
      <trkpt lat="43.56036" lon="6.01157">
        <ele>336.4</ele>
        <time>2017-02-15T16:56:39Z</time>
      </trkpt>
      <trkpt lat="43.56044" lon="6.01153">
        <ele>336</ele>
        <time>2017-02-15T16:56:48Z</time>
      </trkpt>
      <trkpt lat="43.56051" lon="6.01144">
        <ele>335.4</ele>
        <time>2017-02-15T16:57:03Z</time>
      </trkpt>
      <trkpt lat="43.56051" lon="6.01132">
        <ele>334.3</ele>
        <time>2017-02-15T16:57:13Z</time>
      </trkpt>
      <trkpt lat="43.56049" lon="6.01119">
        <ele>333.1</ele>
        <time>2017-02-15T16:57:22Z</time>
      </trkpt>
      <trkpt lat="43.56049" lon="6.01106">
        <ele>331.7</ele>
        <time>2017-02-15T16:57:32Z</time>
      </trkpt>
      <trkpt lat="43.56045" lon="6.01093">
        <ele>330.3</ele>
        <time>2017-02-15T16:57:44Z</time>
      </trkpt>
      <trkpt lat="43.5604" lon="6.01082">
        <ele>328.8</ele>
        <time>2017-02-15T16:57:54Z</time>
      </trkpt>
      <trkpt lat="43.56034" lon="6.01072">
        <ele>327.8</ele>
        <time>2017-02-15T16:58:03Z</time>
      </trkpt>
      <trkpt lat="43.56028" lon="6.01061">
        <ele>326.3</ele>
        <time>2017-02-15T16:58:12Z</time>
      </trkpt>
      <trkpt lat="43.56023" lon="6.0105">
        <ele>325.3</ele>
        <time>2017-02-15T16:58:20Z</time>
      </trkpt>
      <trkpt lat="43.56017" lon="6.0104">
        <ele>324.2</ele>
        <time>2017-02-15T16:58:28Z</time>
      </trkpt>
      <trkpt lat="43.5601" lon="6.0103">
        <ele>323.1</ele>
        <time>2017-02-15T16:58:38Z</time>
      </trkpt>
      <trkpt lat="43.56005" lon="6.01019">
        <ele>322.3</ele>
        <time>2017-02-15T16:58:48Z</time>
      </trkpt>
      <trkpt lat="43.56004" lon="6.01005">
        <ele>321.4</ele>
        <time>2017-02-15T16:58:58Z</time>
      </trkpt>
      <trkpt lat="43.56005" lon="6.00992">
        <ele>321.1</ele>
        <time>2017-02-15T16:59:06Z</time>
      </trkpt>
      <trkpt lat="43.56007" lon="6.00979">
        <ele>320.5</ele>
        <time>2017-02-15T16:59:16Z</time>
      </trkpt>
      <trkpt lat="43.56" lon="6.00971">
        <ele>319.6</ele>
        <time>2017-02-15T16:59:47Z</time>
      </trkpt>
      <trkpt lat="43.55991" lon="6.00968">
        <ele>319.3</ele>
        <time>2017-02-15T16:59:57Z</time>
      </trkpt>
      <trkpt lat="43.55985" lon="6.00957">
        <ele>318.9</ele>
        <time>2017-02-15T17:00:06Z</time>
      </trkpt>
      <trkpt lat="43.5598" lon="6.00946">
        <ele>318.8</ele>
        <time>2017-02-15T17:00:15Z</time>
      </trkpt>
      <trkpt lat="43.55974" lon="6.00935">
        <ele>318.7</ele>
        <time>2017-02-15T17:00:23Z</time>
      </trkpt>
      <trkpt lat="43.55969" lon="6.00925">
        <ele>318.5</ele>
        <time>2017-02-15T17:00:31Z</time>
      </trkpt>
      <trkpt lat="43.55963" lon="6.00915">
        <ele>318.4</ele>
        <time>2017-02-15T17:00:39Z</time>
      </trkpt>
      <trkpt lat="43.55959" lon="6.00903">
        <ele>318.2</ele>
        <time>2017-02-15T17:00:48Z</time>
      </trkpt>
      <trkpt lat="43.55953" lon="6.00893">
        <ele>317.8</ele>
        <time>2017-02-15T17:00:57Z</time>
      </trkpt>
      <trkpt lat="43.55947" lon="6.00883">
        <ele>317.8</ele>
        <time>2017-02-15T17:01:04Z</time>
      </trkpt>
      <trkpt lat="43.55942" lon="6.00872">
        <ele>317.7</ele>
        <time>2017-02-15T17:01:11Z</time>
      </trkpt>
      <trkpt lat="43.55935" lon="6.00863">
        <ele>317.5</ele>
        <time>2017-02-15T17:01:19Z</time>
      </trkpt>
      <trkpt lat="43.55929" lon="6.00851">
        <ele>317.9</ele>
        <time>2017-02-15T17:01:27Z</time>
      </trkpt>
      <trkpt lat="43.55924" lon="6.0084">
        <ele>318.3</ele>
        <time>2017-02-15T17:01:35Z</time>
      </trkpt>
      <trkpt lat="43.55917" lon="6.00831">
        <ele>318.6</ele>
        <time>2017-02-15T17:01:43Z</time>
      </trkpt>
      <trkpt lat="43.55911" lon="6.0082">
        <ele>318.8</ele>
        <time>2017-02-15T17:01:52Z</time>
      </trkpt>
      <trkpt lat="43.55907" lon="6.00809">
        <ele>318.3</ele>
        <time>2017-02-15T17:02:02Z</time>
      </trkpt>
      <trkpt lat="43.55901" lon="6.00799">
        <ele>317.5</ele>
        <time>2017-02-15T17:02:14Z</time>
      </trkpt>
      <trkpt lat="43.559" lon="6.00787">
        <ele>316.8</ele>
        <time>2017-02-15T17:02:25Z</time>
      </trkpt>
      <trkpt lat="43.55894" lon="6.00777">
        <ele>315.9</ele>
        <time>2017-02-15T17:02:32Z</time>
      </trkpt>
      <trkpt lat="43.5589" lon="6.00766">
        <ele>314.9</ele>
        <time>2017-02-15T17:02:40Z</time>
      </trkpt>
      <trkpt lat="43.55882" lon="6.00758">
        <ele>313.4</ele>
        <time>2017-02-15T17:02:51Z</time>
      </trkpt>
      <trkpt lat="43.55875" lon="6.00749">
        <ele>310.5</ele>
        <time>2017-02-15T17:03:07Z</time>
      </trkpt>
      <trkpt lat="43.55866" lon="6.0075">
        <ele>308.6</ele>
        <time>2017-02-15T17:03:19Z</time>
      </trkpt>
      <trkpt lat="43.55856" lon="6.00749">
        <ele>306.9</ele>
        <time>2017-02-15T17:03:29Z</time>
      </trkpt>
      <trkpt lat="43.55847" lon="6.00752">
        <ele>304.8</ele>
        <time>2017-02-15T17:03:46Z</time>
      </trkpt>
      <trkpt lat="43.5584" lon="6.0076">
        <ele>300.5</ele>
        <time>2017-02-15T17:04:12Z</time>
      </trkpt>
      <trkpt lat="43.55844" lon="6.00749">
        <ele>297.4</ele>
        <time>2017-02-15T17:04:32Z</time>
      </trkpt>
      <trkpt lat="43.5584" lon="6.00736">
        <ele>295.9</ele>
        <time>2017-02-15T17:04:40Z</time>
      </trkpt>
      <trkpt lat="43.55836" lon="6.00724">
        <ele>294.6</ele>
        <time>2017-02-15T17:04:48Z</time>
      </trkpt>
      <trkpt lat="43.55833" lon="6.00712">
        <ele>293.3</ele>
        <time>2017-02-15T17:05:05Z</time>
      </trkpt>
      <trkpt lat="43.55834" lon="6.00699">
        <ele>292.6</ele>
        <time>2017-02-15T17:05:14Z</time>
      </trkpt>
      <trkpt lat="43.55829" lon="6.00687">
        <ele>292</ele>
        <time>2017-02-15T17:05:22Z</time>
      </trkpt>
      <trkpt lat="43.5583" lon="6.00674">
        <ele>291</ele>
        <time>2017-02-15T17:05:32Z</time>
      </trkpt>
      <trkpt lat="43.55828" lon="6.00661">
        <ele>289.4</ele>
        <time>2017-02-15T17:05:42Z</time>
      </trkpt>
      <trkpt lat="43.55825" lon="6.00649">
        <ele>287.7</ele>
        <time>2017-02-15T17:05:52Z</time>
      </trkpt>
      <trkpt lat="43.55821" lon="6.00637">
        <ele>286</ele>
        <time>2017-02-15T17:06:02Z</time>
      </trkpt>
      <trkpt lat="43.5582" lon="6.00625">
        <ele>283.6</ele>
        <time>2017-02-15T17:06:26Z</time>
      </trkpt>
      <trkpt lat="43.55822" lon="6.00613">
        <ele>283</ele>
        <time>2017-02-15T17:08:01Z</time>
      </trkpt>
      <trkpt lat="43.55817" lon="6.00602">
        <ele>280.1</ele>
        <time>2017-02-15T17:09:20Z</time>
      </trkpt>
      <trkpt lat="43.55812" lon="6.0059">
        <ele>278.5</ele>
        <time>2017-02-15T17:09:40Z</time>
      </trkpt>
      <trkpt lat="43.55807" lon="6.00578">
        <ele>278.3</ele>
        <time>2017-02-15T17:09:47Z</time>
      </trkpt>
      <trkpt lat="43.55802" lon="6.00567">
        <ele>278</ele>
        <time>2017-02-15T17:09:56Z</time>
      </trkpt>
      <trkpt lat="43.55794" lon="6.0056">
        <ele>277.8</ele>
        <time>2017-02-15T17:10:09Z</time>
      </trkpt>
      <trkpt lat="43.55793" lon="6.00547">
        <ele>277.8</ele>
        <time>2017-02-15T17:10:25Z</time>
      </trkpt>
      <trkpt lat="43.55799" lon="6.00538">
        <ele>277.6</ele>
        <time>2017-02-15T17:10:39Z</time>
      </trkpt>
      <trkpt lat="43.55805" lon="6.00529">
        <ele>277.5</ele>
        <time>2017-02-15T17:10:50Z</time>
      </trkpt>
      <trkpt lat="43.55811" lon="6.00519">
        <ele>277.6</ele>
        <time>2017-02-15T17:11:02Z</time>
      </trkpt>
      <trkpt lat="43.55813" lon="6.00507">
        <ele>277.9</ele>
        <time>2017-02-15T17:11:13Z</time>
      </trkpt>
      <trkpt lat="43.55818" lon="6.00495">
        <ele>278.1</ele>
        <time>2017-02-15T17:11:25Z</time>
      </trkpt>
      <trkpt lat="43.55825" lon="6.00486">
        <ele>278.2</ele>
        <time>2017-02-15T17:11:40Z</time>
      </trkpt>
      <trkpt lat="43.5583" lon="6.00476">
        <ele>278.3</ele>
        <time>2017-02-15T17:12:17Z</time>
      </trkpt>
      <trkpt lat="43.5584" lon="6.00474">
        <ele>278.3</ele>
        <time>2017-02-15T17:12:28Z</time>
      </trkpt>
      <trkpt lat="43.55845" lon="6.00472">
        <ele>278.1</ele>
        <time>2017-02-15T17:12:34Z</time>
      </trkpt>
    </trkseg>
  </trk>
</gpx>